July 24, 2021
Temp
 
66.9 °F
 
Dew Pt.
 
63.2 °F
 
Humidity
 
88%
 
Pressure
 
1015.4 hPa 
  rising slowly
Wind
 
0.0 mph 
    W
Rain
 
0.00 in 
  0.00 in/hr
UV index
 
---  
 
Solar rad.
 
100 W/m²
 
Today

Today: Patchy fog before 11am.  Otherwise, partly sunny, with a high near 88. Light south southwest wind increasing to 5 to 10 mph in the afternoon. Winds could gust as high as 15 mph.
Patchy Fog
then Mostly
Sunny
Tonight

Tonight: Mostly cloudy, with a low around 65. South southwest wind 5 to 10 mph becoming light  in the evening.
Mostly Cloudy

Hi 88 °F Lo 65 °F
MAP MAG LOCAL DATETIME
y/m/d h:m:s
LAT
deg
LON
deg
DEPTH
km
LOCATION
map0.52021/07/24 07:50:5238.537N119.530W6.5 32 km (20 mi) SSW of Smith Valley, NV
map1.72021/07/24 07:47:4838.037N118.771W4.25 48 km (30 mi) NNE of Mammoth Lakes, CA
map1.12021/07/24 07:21:1633.253N116.779W7 2 km ( 1 mi) NW of Lake Henshaw, CA
map0.42021/07/24 07:14:2038.822N122.800W3.58 6 km ( 4 mi) NW of The Geysers, CA
map1.12021/07/24 07:12:1535.515N118.382W8.71 13 km ( 8 mi) SE of Bodfish, CA
map0.62021/07/24 06:57:0138.825N122.804W2.61 7 km ( 4 mi) NW of The Geysers, CA
map2.62021/07/24 06:37:1139.663N122.847W0.38 37 km (23 mi) ESE of Covelo, CA
map0.82021/07/24 05:42:3038.536N119.467W3.6 30 km (18 mi) SSW of Smith Valley, NV
map0.82021/07/24 05:32:2633.481N116.436W11.52 23 km (15 mi) SSW of La Quinta, CA
map0.82021/07/24 05:29:2133.486N116.431W12.12 23 km (14 mi) SSW of La Quinta, CA
map0.62021/07/24 05:20:5633.476N116.527W14.31 16 km (10 mi) ESE of Anza, CA
map1.12021/07/24 05:06:4533.087N116.623W10.53 2 km ( 1 mi) WNW of Julian, CA
map0.62021/07/24 04:56:3238.506N119.527W6.6 35 km (22 mi) SSW of Smith Valley, NV
map2.22021/07/24 04:51:0736.520N121.757W9.94 2 km ( 1 mi) NNE of Carmel Valley Village, CA
map1.02021/07/24 04:46:3538.157N117.951W9.8 64 km (40 mi) W of Tonopah, NV
map1.02021/07/24 04:44:4334.039N117.486W10.07 3 km ( 2 mi) N of Glen Avon, CA
map0.42021/07/24 04:43:5633.041N116.439W3.16 16 km (10 mi) ESE of Julian, CA
map1.52021/07/24 04:38:2938.397N118.387W3.3 25 km (16 mi) SE of Hawthorne, NV
map0.32021/07/24 04:29:0638.810N122.794W2.51 5 km ( 3 mi) NW of The Geysers, CA
map0.72021/07/24 04:19:5238.497N119.492W6.0 34 km (21 mi) SSW of Smith Valley, NV
map0.52021/07/24 04:14:5938.497N119.536W6.3 36 km (22 mi) SSW of Smith Valley, NV
map0.72021/07/24 04:09:5938.533N119.545W7.4 33 km (20 mi) SSW of Smith Valley, NV
map1.02021/07/24 04:05:5738.517N119.554W8.2 35 km (22 mi) SSW of Smith Valley, NV
map0.92021/07/24 04:02:0638.820N122.802W2.35 6 km ( 4 mi) NW of The Geysers, CA
map0.72021/07/24 03:49:4733.703N116.702W17.5 4 km ( 3 mi) SSE of Idyllwild, CA
map1.22021/07/24 03:28:0038.160N117.850W9.6 55 km (34 mi) W of Tonopah, NV
map0.72021/07/24 03:24:0838.434N119.652W14.1 47 km (29 mi) SW of Smith Valley, NV
map1.02021/07/24 03:14:1938.526N119.563W8.9 34 km (21 mi) SW of Smith Valley, NV
map1.92021/07/24 03:12:4038.534N119.547W4.12 33 km (20 mi) SSW of Smith Valley, NV
map0.92021/07/24 02:59:4933.698N116.729W16.89 5 km ( 3 mi) S of Idyllwild, CA
map1.32021/07/24 02:55:1433.466N116.569W10.54 14 km ( 9 mi) SE of Anza, CA
map0.82021/07/24 02:37:4938.521N119.484W3.8 32 km (20 mi) SSW of Smith Valley, NV
map0.82021/07/24 02:01:4738.522N119.400W2.8 30 km (18 mi) S of Smith Valley, NV
map2.42021/07/24 01:54:2339.547N122.014W14.31 16 km (10 mi) E of Willows, CA
map0.72021/07/24 01:51:3738.566N119.446W1.5 26 km (16 mi) SSW of Smith Valley, NV
map0.72021/07/24 01:35:3538.521N119.401W3.2 30 km (18 mi) S of Smith Valley, NV
map1.22021/07/24 01:34:5038.574N119.374W0.5 24 km (15 mi) S of Smith Valley, NV
map1.42021/07/24 01:19:3038.537N119.532W3.8 32 km (20 mi) SSW of Smith Valley, NV
map0.92021/07/24 01:07:3438.519N119.496W8.8 32 km (20 mi) SSW of Smith Valley, NV
map1.12021/07/24 00:40:0938.479N119.538W9.2 38 km (24 mi) SSW of Smith Valley, NV
map0.62021/07/24 00:35:3533.926N116.781W16.75 1 km ( 1 mi) NNE of Cabazon, CA
map1.02021/07/24 00:31:1838.524N119.508W7.6 32 km (20 mi) SSW of Smith Valley, NV
map0.82021/07/24 00:10:3234.007N117.205W14.09 6 km ( 4 mi) SSW of Redlands, CA
map1.12021/07/23 23:55:4735.619N117.435W6.63 17 km (10 mi) S of Searles Valley, CA
map0.92021/07/23 23:52:3838.471N119.622W10.2 42 km (26 mi) SW of Smith Valley, NV
map1.22021/07/23 23:44:3137.672N117.967W3.5 51 km (32 mi) NE of Dixon Lane-Meadow Creek, CA
map2.62021/07/23 23:44:0538.479N119.486W7.81 36 km (22 mi) SSW of Smith Valley, NV
map1.22021/07/23 23:22:3038.514N119.415W9.4 31 km (19 mi) SSW of Smith Valley, NV
map1.92021/07/23 23:20:1338.173N117.837W7.3 54 km (34 mi) WNW of Tonopah, NV
map1.42021/07/23 23:19:3733.905N116.879W13.22 2 km ( 1 mi) S of Banning, CA
map0.72021/07/23 23:13:5238.527N119.480W8.5 31 km (19 mi) SSW of Smith Valley, NV
map0.92021/07/23 23:10:3938.838N122.826W1.72 9 km ( 6 mi) NW of The Geysers, CA
map0.82021/07/23 23:01:1938.521N119.402W3.0 30 km (18 mi) S of Smith Valley, NV
map2.12021/07/23 22:46:0238.478N119.506W3.96 37 km (23 mi) SSW of Smith Valley, NV
map1.22021/07/23 22:39:3938.523N119.404W3.2 30 km (18 mi) S of Smith Valley, NV
MAP3.02021/07/23 22:36:3538.172N116.728W0.9 45 km (28 mi) ENE of Tonopah, NV
MAP3.82021/07/23 22:34:4638.173N116.715W1.0 47 km (29 mi) ENE of Tonopah, NV
map0.62021/07/23 21:54:5838.372N119.416W2.6 46 km (29 mi) S of Smith Valley, NV
map0.72021/07/23 21:53:3438.177N117.801W8.8 51 km (32 mi) WNW of Tonopah, NV
map0.62021/07/23 21:42:2335.781N117.587W7.33 17 km (10 mi) W of Searles Valley, CA
map-0.32021/07/23 21:09:3137.605N118.960W2.4 4 km ( 2 mi) SSE of Mammoth Lakes, CA
map0.82021/07/23 21:01:1139.337N120.141W9.4 4 km ( 2 mi) ENE of Truckee, CA
map1.22021/07/23 21:00:0538.832N122.877W2.93 12 km ( 8 mi) WNW of The Geysers, CA
map1.02021/07/23 20:35:0238.742N122.973W-0.55 8 km ( 5 mi) SSE of Cloverdale, CA
map1.32021/07/23 20:34:0438.500N119.503W8.0 34 km (21 mi) SSW of Smith Valley, NV
map1.22021/07/23 20:30:3038.743N122.972W2.97 8 km ( 5 mi) SSE of Cloverdale, CA
map0.82021/07/23 20:27:3838.558N119.449W1.5 27 km (17 mi) SSW of Smith Valley, NV
map1.02021/07/23 20:22:3134.115N116.403W11.68 3 km ( 2 mi) E of Yucca Valley, CA
map1.02021/07/23 20:00:3738.531N119.460W2.7 30 km (19 mi) SSW of Smith Valley, NV
map0.92021/07/23 19:59:2133.767N116.080W8.42 13 km ( 8 mi) NE of Coachella, CA
map1.22021/07/23 19:44:0638.148N117.912W6.2 60 km (37 mi) W of Tonopah, NV
map1.72021/07/23 19:06:5238.503N119.514W9.5 35 km (21 mi) SSW of Smith Valley, NV
map0.42021/07/23 19:02:1537.592N119.005W2.03 5 km ( 3 mi) SSW of Mammoth Lakes, CA
map2.52021/07/23 18:43:4635.880N121.498W3.23 50 km (31 mi) SW of King City, CA
map1.12021/07/23 18:26:3938.557N119.501W6.5 29 km (18 mi) SSW of Smith Valley, NV
map1.22021/07/23 18:17:1638.479N119.443W2.3 35 km (22 mi) SSW of Smith Valley, NV
map0.92021/07/23 18:01:1638.540N119.533W5.5 32 km (20 mi) SSW of Smith Valley, NV
map2.42021/07/23 17:25:5938.380N118.385W4.0 26 km (16 mi) SE of Hawthorne, NV
map0.92021/07/23 17:25:1738.839N122.820W1.08 9 km ( 5 mi) WNW of Cobb, CA
map1.52021/07/23 17:23:1238.161N117.905W9.6 60 km (37 mi) W of Tonopah, NV
map1.42021/07/23 17:21:5338.166N117.904W9.7 60 km (37 mi) W of Tonopah, NV
map0.82021/07/23 17:16:3533.264N116.379W7.54 1 km ( 1 mi) NNW of Borrego Springs, CA
map1.52021/07/23 17:14:4138.401N118.740W1.9 17 km (11 mi) SW of Hawthorne, NV
map1.52021/07/23 16:52:2938.557N119.512W4.8 29 km (18 mi) SSW of Smith Valley, NV
map2.22021/07/23 16:13:3539.671N122.843W4.02 37 km (23 mi) ESE of Covelo, CA
map0.62021/07/23 15:54:4533.251N116.776W8.14 2 km ( 1 mi) NW of Lake Henshaw, CA
map1.52021/07/23 15:38:4334.467N119.020W0.69 12 km ( 7 mi) NW of Fillmore, CA
map0.52021/07/23 15:32:4735.837N117.693W9.96 22 km (14 mi) ESE of Little Lake, CA
map1.12021/07/23 15:29:3335.620N117.444W6.66 17 km (10 mi) SSW of Searles Valley, CA
map2.12021/07/23 15:12:3834.564N118.922W6.22 18 km (11 mi) N of Fillmore, CA
map1.52021/07/23 15:11:5038.165N117.973W3.7 66 km (41 mi) W of Tonopah, NV
map1.02021/07/23 15:11:3338.818N122.782W1.75 5 km ( 3 mi) NNW of The Geysers, CA
map0.62021/07/23 15:02:3938.804N122.741W2.03 3 km ( 2 mi) SW of Cobb, CA
map1.82021/07/23 14:47:5439.507N121.560W24.97 1 km ( 1 mi) SSW of Oroville, CA
map0.42021/07/23 14:44:0238.827N122.801W2.6 7 km ( 4 mi) NW of The Geysers, CA
map1.42021/07/23 14:23:5838.542N119.452W1.7 28 km (18 mi) SSW of Smith Valley, NV
map0.52021/07/23 14:17:3735.906N117.739W10.05 15 km (10 mi) ESE of Little Lake, CA
map-0.12021/07/23 14:17:3237.597N119.007W1.79 5 km ( 3 mi) SSW of Mammoth Lakes, CA
map1.72021/07/23 14:00:0832.912N116.940W-0.3 12 km ( 8 mi) NE of Quarry at CPE-3 (Probable quarry explosion)
map0.42021/07/23 13:58:0935.892N117.734W10.85 16 km (10 mi) ESE of Little Lake, CA
map0.42021/07/23 13:47:3533.556N116.426W10.85 16 km (10 mi) SW of La Quinta, CA
map1.52021/07/23 13:33:0938.404N118.385W1.5 25 km (15 mi) ESE of Hawthorne, NV
map0.92021/07/23 13:18:2238.530N119.534W5.3 33 km (20 mi) SSW of Smith Valley, NV
map1.82021/07/23 13:15:2137.569N119.943W2.99 3 km ( 2 mi) NW of Midpines, CA
map1.52021/07/23 13:11:0735.688N117.526W6.83 14 km ( 9 mi) SW of Searles Valley, CA
map2.72021/07/23 13:09:5240.320N124.326W25.59 27 km (17 mi) SW of Rio Dell, CA
map1.02021/07/23 13:08:3435.690N117.486W7.25 11 km ( 7 mi) SW of Searles Valley, CA
map2.12021/07/23 13:04:5638.574N119.454W0 25 km (16 mi) SSW of Smith Valley, NV
map1.32021/07/23 13:04:4338.165N117.968W1.6 65 km (41 mi) W of Tonopah, NV
map0.12021/07/23 12:50:1235.899N117.720W5.41 17 km (11 mi) ESE of Little Lake, CA
MAP3.12021/07/23 12:47:4938.476N119.493W5.43 37 km (23 mi) SSW of Smith Valley, NV
map1.92021/07/23 12:32:4341.326N122.112W7.19 8 km ( 5 mi) NNE of McCloud, CA
map1.52021/07/23 11:49:0638.835N122.794W2.07 6 km ( 4 mi) WNW of Cobb, CA
map2.22021/07/23 11:46:2038.834N122.794W1.99 6 km ( 4 mi) WNW of Cobb, CA
map2.32021/07/23 11:44:3438.835N122.792W2.13 6 km ( 4 mi) WNW of Cobb, CA
map2.62021/07/23 11:34:3035.972N120.527W7.46 12 km ( 7 mi) NW of Parkfield, CA
map0.82021/07/23 11:32:2035.979N117.340W6.37 24 km (15 mi) N of Trona, CA
map0.32021/07/23 11:26:5036.033N117.811W1.33 12 km ( 8 mi) E of Coso Junction, CA
map1.32021/07/23 11:11:5835.158N118.685W10.54 14 km ( 9 mi) ESE of Arvin, CA
map0.82021/07/23 11:09:0838.819N122.810W4.27 7 km ( 4 mi) NW of The Geysers, CA
map0.72021/07/23 10:44:3935.662N117.407W2.04 12 km ( 7 mi) SSW of Trona, CA
map0.92021/07/23 10:37:5338.814N122.817W2.68 7 km ( 4 mi) NW of The Geysers, CA
map1.02021/07/23 10:24:1534.139N118.462W5.35 2 km ( 1 mi) SW of Sherman Oaks, CA
map1.12021/07/23 10:23:4734.143N118.461W4.67 1 km ( 1 mi) SW of Sherman Oaks, CA
map1.12021/07/23 10:20:2535.761N117.588W6.57 17 km (10 mi) W of Searles Valley, CA
map0.92021/07/23 10:17:4333.537N116.554W13.27 11 km ( 7 mi) E of Anza, CA
map1.52021/07/23 10:17:3438.551N119.522W4.2 30 km (19 mi) SSW of Smith Valley, NV
map0.42021/07/23 10:16:2338.818N122.809W3.69 6 km ( 4 mi) NW of The Geysers, CA
map0.92021/07/23 10:07:1738.407N118.314W1.4 30 km (19 mi) ESE of Hawthorne, NV
map1.02021/07/23 10:00:0738.798N122.816W3.31 6 km ( 4 mi) WNW of The Geysers, CA
map1.32021/07/23 09:44:2738.522N119.503W8.1 32 km (20 mi) SSW of Smith Valley, NV
map0.82021/07/23 09:30:0638.531N119.445W3.1 30 km (18 mi) SSW of Smith Valley, NV
map1.12021/07/23 09:26:1838.527N119.518W8.5 32 km (20 mi) SSW of Smith Valley, NV
map0.42021/07/23 09:22:4838.822N122.806W2.73 7 km ( 4 mi) NW of The Geysers, CA
map0.72021/07/23 09:21:5538.554N119.529W9.7 30 km (19 mi) SSW of Smith Valley, NV
map1.02021/07/23 09:15:1635.873N117.680W5.87 22 km (13 mi) ESE of Little Lake, CA
map1.32021/07/23 09:09:2837.477N116.705W1.4 63 km (39 mi) N of Beatty, NV
map1.22021/07/23 08:53:1038.536N119.440W1.4 29 km (18 mi) SSW of Smith Valley, NV
map1.22021/07/23 08:51:1538.184N117.888W8.6 59 km (37 mi) WNW of Tonopah, NV
map1.02021/07/23 08:51:0338.531N119.534W4.3 33 km (20 mi) SSW of Smith Valley, NV
map1.42021/07/23 08:47:2938.559N119.535W4.5 30 km (19 mi) SW of Smith Valley, NV
map0.82021/07/23 08:31:1638.821N122.801W2.87 6 km ( 4 mi) NW of The Geysers, CA
map0.32021/07/23 08:11:4333.733N116.848W2.58 4 km ( 3 mi) ESE of Valle Vista, CA
map0.32021/07/23 08:11:2637.604N118.981W5.1 4 km ( 2 mi) S of Mammoth Lakes, CA
map0.52021/07/23 08:06:0337.607N118.981W5.33 3 km ( 2 mi) S of Mammoth Lakes, CA
map1.02021/07/23 07:52:4834.085N117.301W15.06 2 km ( 1 mi) NE of Colton, CA
map1.22021/07/23 07:50:5538.823N122.801W2.72 6 km ( 4 mi) NW of The Geysers, CA
map0.52021/07/23 07:36:4935.908N117.680W8.96 21 km (13 mi) E of Little Lake, CA
map0.42021/07/23 07:36:1035.885N117.674W4.28 22 km (13 mi) ESE of Little Lake, CA
map1.02021/07/23 07:22:3536.130N117.919W4.66 10 km ( 6 mi) NNE of Coso Junction, CA
map1.02021/07/23 07:09:1135.865N117.681W4.03 22 km (14 mi) ESE of Little Lake, CA
map0.82021/07/23 07:04:4335.568N116.376W0 34 km (21 mi) SSW of Tecopa, CA
map1.02021/07/23 07:04:2835.780N117.592W7.16 17 km (11 mi) W of Searles Valley, CA
map0.72021/07/23 06:55:4338.515N119.528W3.6 34 km (21 mi) SSW of Smith Valley, NV
map0.52021/07/23 06:54:4738.798N122.817W3.27 6 km ( 4 mi) WNW of The Geysers, CA
map1.52021/07/23 06:54:2738.798N122.815W3.01 6 km ( 3 mi) WNW of The Geysers, CA
map1.92021/07/23 06:48:5438.493N119.528W5.94 36 km (22 mi) SSW of Smith Valley, NV
map0.72021/07/23 06:47:3538.549N119.531W6.7 31 km (19 mi) SSW of Smith Valley, NV
map2.42021/07/23 06:43:3738.547N119.537W1.95 31 km (19 mi) SSW of Smith Valley, NV
map0.22021/07/23 06:42:3533.498N116.489W13.46 18 km (11 mi) ESE of Anza, CA
map1.42021/07/23 06:30:1138.548N119.501W6.5 30 km (18 mi) SSW of Smith Valley, NV
map1.12021/07/23 06:20:4338.517N119.526W4.4 34 km (21 mi) SSW of Smith Valley, NV
map1.62021/07/23 06:14:3938.497N119.512W8.2 35 km (22 mi) SSW of Smith Valley, NV
map0.42021/07/23 06:07:4738.451N119.498W10.3 39 km (24 mi) SSW of Smith Valley, NV
map1.12021/07/23 05:59:5338.195N117.893W7.0 60 km (37 mi) WNW of Tonopah, NV
map0.52021/07/23 05:47:2438.541N119.528W7.0 31 km (19 mi) SSW of Smith Valley, NV
map0.72021/07/23 05:42:1438.547N119.549W8.4 32 km (20 mi) SW of Smith Valley, NV
map2.02021/07/23 05:14:1638.539N119.452W2 29 km (18 mi) SSW of Smith Valley, NV
map2.82021/07/23 04:38:1838.537N119.452W2.1 29 km (18 mi) SSW of Smith Valley, NV
map0.22021/07/23 04:15:3433.409N116.391W4.4 17 km (11 mi) N of Borrego Springs, CA
map1.92021/07/23 04:07:1635.719N117.522W6.3 12 km ( 7 mi) WSW of Searles Valley, CA
map1.62021/07/23 04:05:0338.520N119.475W3.3 31 km (20 mi) SSW of Smith Valley, NV
map2.02021/07/23 03:55:3538.515N119.520W2.82 34 km (21 mi) SSW of Smith Valley, NV
map2.12021/07/23 03:53:0838.465N119.507W5.28 38 km (24 mi) SSW of Smith Valley, NV
map0.42021/07/23 03:32:0538.480N119.518W4.9 37 km (23 mi) SSW of Smith Valley, NV
map0.62021/07/23 03:29:3235.752N118.019W4.25 22 km (14 mi) WNW of Inyokern, CA
map1.12021/07/23 03:06:3836.125N117.912W3.77 9 km ( 6 mi) NNE of Coso Junction, CA
map1.12021/07/23 02:49:3638.579N119.619W4.8 33 km (21 mi) SW of Smith Valley, NV
map1.62021/07/23 02:43:4633.549N118.169W13.09 22 km (14 mi) SSW of Seal Beach, CA
map0.92021/07/23 02:41:4035.685N117.519W6.53 14 km ( 9 mi) SW of Searles Valley, CA
map0.72021/07/23 02:28:4035.764N117.582W8.72 16 km (10 mi) W of Searles Valley, CA
map0.92021/07/23 02:23:3032.757N115.827W3.08 16 km (10 mi) E of Ocotillo, CA
map1.62021/07/23 02:09:0732.470N116.279W18.43 23 km (15 mi) SE of Campo, CA
map0.42021/07/23 02:07:3838.351N119.568W15.5 52 km (32 mi) SSW of Smith Valley, NV
map0.72021/07/23 02:00:2033.942N116.891W16.85 2 km ( 1 mi) NW of Banning, CA
map2.02021/07/23 02:00:0738.143N118.030W3.2 67 km (42 mi) SE of Hawthorne, NV
map0.72021/07/23 01:53:5435.622N117.469W7.53 17 km (11 mi) SSW of Searles Valley, CA
map0.32021/07/23 01:49:1038.433N119.500W9.7 41 km (26 mi) SSW of Smith Valley, NV
map1.02021/07/23 01:43:4338.833N122.804W0.06 7 km ( 4 mi) W of Cobb, CA
map0.32021/07/23 01:43:0238.447N119.480W8.7 39 km (24 mi) SSW of Smith Valley, NV
map1.02021/07/23 01:42:4838.831N122.805W-0.23 7 km ( 4 mi) W of Cobb, CA
map0.62021/07/23 01:18:2438.820N122.804W3.19 6 km ( 4 mi) NW of The Geysers, CA
map0.62021/07/23 01:18:1138.529N119.476W8.4 31 km (19 mi) SSW of Smith Valley, NV
map1.02021/07/23 01:17:3733.265N116.300W10.89 7 km ( 4 mi) E of Borrego Springs, CA
map1.42021/07/23 01:13:2938.821N122.804W3.21 6 km ( 4 mi) NW of The Geysers, CA
map0.52021/07/23 01:07:3333.633N116.680W13.48 9 km ( 5 mi) N of Anza, CA
map0.42021/07/23 01:05:3835.891N117.688W4.17 20 km (13 mi) ESE of Little Lake, CA
map1.12021/07/23 01:03:2138.204N117.888W6.8 59 km (37 mi) WNW of Tonopah, NV
map2.72021/07/23 00:56:5438.554N119.511W-1.61 29 km (18 mi) SSW of Smith Valley, NV
map2.22021/07/23 00:54:5937.472N120.254W4.7 21 km (13 mi) NNE of Planada, CA
map1.22021/07/23 00:47:4138.542N119.460W3.3 29 km (18 mi) SSW of Smith Valley, NV
map0.82021/07/23 00:46:3538.539N119.460W4.7 29 km (18 mi) SSW of Smith Valley, NV
map0.82021/07/23 00:37:2138.553N119.444W1.8 27 km (17 mi) SSW of Smith Valley, NV
map0.82021/07/23 00:17:4238.783N122.754W1.35 1 km ( 0 mi) NNE of The Geysers, CA
map1.02021/07/23 00:14:3135.684N117.460W4.23 11 km ( 7 mi) SSW of Searles Valley, CA
map0.52021/07/23 00:14:1635.862N117.656W6.76 24 km (15 mi) ESE of Little Lake, CA
map1.42021/07/23 00:02:1038.213N117.789W4.7 51 km (32 mi) WNW of Tonopah, NV
map1.72021/07/22 23:57:1839.611N123.411W8.1 11 km ( 7 mi) SE of Laytonville, CA
map0.32021/07/22 23:56:5537.622N118.954W0.35 3 km ( 2 mi) SE of Mammoth Lakes, CA
map1.12021/07/22 23:44:4338.541N119.450W1.8 29 km (18 mi) SSW of Smith Valley, NV
map1.62021/07/22 23:17:4635.762N117.558W10.75 14 km ( 9 mi) W of Searles Valley, CA
map1.22021/07/22 22:49:3836.467N121.022W7.14 26 km (16 mi) NE of Greenfield, CA
map0.42021/07/22 22:43:0235.906N117.741W7.77 15 km (10 mi) ESE of Little Lake, CA
map1.12021/07/22 22:37:3138.515N119.529W6.9 34 km (21 mi) SSW of Smith Valley, NV
map0.42021/07/22 22:33:2238.815N122.835W2.72 8 km ( 5 mi) WNW of The Geysers, CA
map0.62021/07/22 22:27:0532.930N116.338W9.8 22 km (13 mi) NE of Pine Valley, CA
map0.82021/07/22 22:17:3635.865N117.669W9.92 23 km (14 mi) ESE of Little Lake, CA
map2.42021/07/22 22:15:5639.664N122.853W1.59 37 km (23 mi) ESE of Covelo, CA
map1.32021/07/22 22:02:1535.712N117.517W7.04 12 km ( 7 mi) WSW of Searles Valley, CA
map0.92021/07/22 21:53:0838.544N119.516W8.2 31 km (19 mi) SSW of Smith Valley, NV
map0.52021/07/22 21:51:2135.865N117.669W10.27 23 km (14 mi) ESE of Little Lake, CA
map1.12021/07/22 21:41:1738.168N117.840W4.2 54 km (34 mi) WNW of Tonopah, NV
map0.32021/07/22 21:40:5938.572N119.447W4.1 25 km (16 mi) SSW of Smith Valley, NV
map1.22021/07/22 21:27:2738.537N119.481W8.0 30 km (19 mi) SSW of Smith Valley, NV
map0.82021/07/22 21:14:3333.938N116.821W17.36 4 km ( 2 mi) NW of Cabazon, CA
map0.92021/07/22 21:06:0038.526N119.488W7.3 31 km (19 mi) SSW of Smith Valley, NV
map1.72021/07/22 21:02:2838.142N118.032W3.2 67 km (42 mi) SE of Hawthorne, NV
map1.32021/07/22 21:01:5434.416N119.355W8.61 11 km ( 7 mi) WSW of Ojai, CA
map1.22021/07/22 20:58:1938.210N117.789W5.6 51 km (32 mi) WNW of Tonopah, NV
map1.02021/07/22 20:49:1537.331N121.694W7.9 12 km ( 8 mi) ESE of East Foothills, CA
map2.12021/07/22 20:42:5340.377N124.768W18.62 48 km (30 mi) WSW of Ferndale, CA
map0.82021/07/22 20:29:3937.522N118.805W4.68 20 km (12 mi) SE of Mammoth Lakes, CA
map1.12021/07/22 20:22:4035.749N118.040W3.82 23 km (15 mi) WNW of Inyokern, CA
map0.92021/07/22 19:57:0638.536N119.524W5.6 32 km (20 mi) SSW of Smith Valley, NV
map2.12021/07/22 19:52:1538.571N119.454W0.97 26 km (16 mi) SSW of Smith Valley, NV
map0.82021/07/22 19:49:4838.807N122.819W0.48 6 km ( 4 mi) WNW of The Geysers, CA
map1.12021/07/22 19:44:0534.196N117.616W9.59 9 km ( 5 mi) NNW of Rancho Cucamonga, CA
map1.12021/07/22 19:37:2037.331N121.698W8 12 km ( 7 mi) ESE of East Foothills, CA
map0.22021/07/22 19:30:2633.684N116.791W15.85 9 km ( 6 mi) SW of Idyllwild, CA
map2.22021/07/22 18:59:4538.541N119.484W7.78 30 km (18 mi) SSW of Smith Valley, NV
map0.82021/07/22 18:57:4233.345N116.317W10.13 11 km ( 7 mi) NNE of Borrego Springs, CA
map1.42021/07/22 18:56:3338.541N119.466W6.7 29 km (18 mi) SSW of Smith Valley, NV
map1.62021/07/22 18:51:5638.343N119.718W3.07 56 km (35 mi) E of Arnold, CA
map1.62021/07/22 18:51:3938.532N119.479W8.2 30 km (19 mi) SSW of Smith Valley, NV
map1.32021/07/22 18:14:4538.516N119.493W7.0 33 km (20 mi) SSW of Smith Valley, NV
map1.22021/07/22 18:08:5037.890N119.599W2.58 17 km (10 mi) N of Yosemite Valley, CA
map1.02021/07/22 18:05:0338.509N119.468W7.9 32 km (20 mi) SSW of Smith Valley, NV
map0.92021/07/22 17:52:1133.350N116.278W10.57 14 km ( 9 mi) NE of Borrego Springs, CA
map0.92021/07/22 17:31:4238.825N122.822W2.04 8 km ( 5 mi) NW of The Geysers, CA
map2.02021/07/22 17:20:1835.644N120.751W7.69 7 km ( 4 mi) WNW of Paso Robles, CA
map0.92021/07/22 17:10:5233.267N116.130W9.2 14 km ( 9 mi) N of Ocotillo Wells, CA
map0.42021/07/22 17:06:4033.682N116.787W15.86 9 km ( 6 mi) SW of Idyllwild, CA
map1.32021/07/22 16:59:0538.359N118.903W11.8 31 km (19 mi) SW of Hawthorne, NV
map1.32021/07/22 16:58:1835.688N117.497W6.52 12 km ( 8 mi) SW of Searles Valley, CA
map1.22021/07/22 16:24:4938.393N118.367W3.6 27 km (17 mi) ESE of Hawthorne, NV
map1.82021/07/22 16:09:3938.161N117.955W10.5 64 km (40 mi) W of Tonopah, NV
map1.02021/07/22 16:03:5838.760N122.717W1.39 4 km ( 2 mi) ESE of The Geysers, CA
map0.82021/07/22 16:03:1038.821N122.805W3.17 6 km ( 4 mi) NW of The Geysers, CA
map1.22021/07/22 15:53:5638.537N119.453W0.7 29 km (18 mi) SSW of Smith Valley, NV
map1.42021/07/22 15:38:5238.526N122.449W6.03 3 km ( 2 mi) NE of Saint Helena, CA
map1.32021/07/22 15:38:5238.525N122.452W7.11 3 km ( 2 mi) NE of Saint Helena, CA
map0.22021/07/22 15:35:5433.517N116.551W10.78 12 km ( 8 mi) ESE of Anza, CA
map1.92021/07/22 15:19:5933.710N116.759W17.04 5 km ( 3 mi) SW of Idyllwild, CA
map0.52021/07/22 15:07:4038.823N122.807W2.78 7 km ( 4 mi) NW of The Geysers, CA
map1.42021/07/22 15:01:5135.650N120.755W7.34 7 km ( 5 mi) WNW of Paso Robles, CA
map0.92021/07/22 14:55:0135.075N118.766W11.06 16 km (10 mi) SSE of Arvin, CA
map1.22021/07/22 14:50:2834.144N118.461W4.78 1 km ( 1 mi) WSW of Sherman Oaks, CA
map0.62021/07/22 14:36:3835.776N117.583W7.29 16 km (10 mi) W of Searles Valley, CA
map0.42021/07/22 14:36:2935.766N117.575W6.42 15 km (10 mi) W of Searles Valley, CA
map1.42021/07/22 14:25:4138.099N119.553W4.6 40 km (25 mi) N of Yosemite Valley, CA
map2.22021/07/22 13:59:3940.056N122.919W10.11 41 km (25 mi) NE of Covelo, CA
map1.72021/07/22 13:37:1639.547N123.382W7.19 11 km ( 7 mi) N of Brooktrails, CA
map1.12021/07/22 13:34:4638.185N119.652W2.96 50 km (31 mi) N of Yosemite Valley, CA
map0.82021/07/22 13:23:0538.152N117.908W8.5 60 km (37 mi) W of Tonopah, NV
map0.52021/07/22 13:18:1238.818N122.823W2.34 7 km ( 5 mi) NW of The Geysers, CA
map2.52021/07/22 13:14:1134.028N117.599W15.51 4 km ( 2 mi) SE of Ontario, CA
map2.22021/07/22 12:57:4338.533N119.519W2.97 32 km (20 mi) SSW of Smith Valley, NV
map2.02021/07/22 12:53:4741.684N121.896W-0.57 46 km (29 mi) SW of Tulelake, CA
map1.62021/07/22 12:51:0532.794N115.451W9.03 7 km ( 4 mi) WSW of Holtville, CA
map2.12021/07/22 12:43:5638.177N117.910W3.0 61 km (38 mi) WNW of Tonopah, NV
map1.82021/07/22 12:33:4138.550N119.462W-0.24 28 km (17 mi) SSW of Smith Valley, NV
map1.32021/07/22 12:23:2238.808N122.812W3.49 6 km ( 4 mi) NW of The Geysers, CA
map2.02021/07/22 12:21:1032.797N115.452W9.63 7 km ( 4 mi) WSW of Holtville, CA
map1.12021/07/22 12:20:2538.509N119.520W6.0 34 km (21 mi) SSW of Smith Valley, NV
map2.82021/07/22 12:19:5838.947N122.024W15.81 8 km ( 5 mi) NW of Dunnigan, CA
map0.22021/07/22 12:17:5936.007N117.799W0.55 12 km ( 8 mi) NE of Little Lake, CA
map1.22021/07/22 12:06:0633.687N116.791W16.39 9 km ( 6 mi) SW of Idyllwild, CA
map2.32021/07/22 12:04:3832.800N115.454W12.02 7 km ( 4 mi) W of Holtville, CA
map1.92021/07/22 12:03:5833.679N116.793W16.66 10 km ( 6 mi) SW of Idyllwild, CA
map1.42021/07/22 12:00:2732.774N116.887W-0.42 4 km ( 3 mi) ENE of Quarry at SYS-CPE (Probable quarry explosion)
map1.32021/07/22 11:59:3534.999N118.190W-0.75 2 km ( 1 mi) WSW of Quarry at TPO-DBM (Probable quarry explosion)
map2.92021/07/22 11:53:0638.498N119.520W4.46 35 km (22 mi) SSW of Smith Valley, NV
map0.32021/07/22 11:49:2835.858N117.675W9.94 23 km (14 mi) ESE of Little Lake, CA
map-0.32021/07/22 11:49:2436.003N117.634W11.19 26 km (16 mi) ENE of Little Lake, CA
map1.22021/07/22 11:35:5833.803N116.086W1.4 15 km ( 9 mi) NE of Indio, CA
map0.62021/07/22 11:32:4538.788N122.765W1.23 1 km ( 1 mi) NNW of The Geysers, CA
map0.92021/07/22 11:29:1636.020N120.581W2.49 19 km (12 mi) NW of Parkfield, CA
map1.72021/07/22 11:26:2833.910N117.610W6.91 6 km ( 4 mi) NW of Corona, CA
map0.12021/07/22 11:19:1738.367N118.354W1.8 29 km (18 mi) SE of Hawthorne, NV
map2.62021/07/22 11:16:5938.531N119.523W3.68 32 km (20 mi) SSW of Smith Valley, NV
map0.42021/07/22 11:09:5638.814N122.820W2.31 7 km ( 4 mi) NW of The Geysers, CA
map1.12021/07/22 11:00:5638.403N118.390W0.3 24 km (15 mi) SE of Hawthorne, NV
map1.92021/07/22 10:48:0638.813N122.819W2.8 7 km ( 4 mi) NW of The Geysers, CA
map2.12021/07/22 10:41:5437.298N120.015W24.94 21 km (13 mi) SSW of Mariposa, CA
map1.22021/07/22 10:36:2834.326N116.942W-1.35 1 km ( 1 mi) ESE of Quarry at PFIZER (Probable quarry explosion)
map1.22021/07/22 10:26:2838.491N119.559W3.4 38 km (23 mi) SSW of Smith Valley, NV
map1.22021/07/22 10:16:4238.805N122.758W0.08 3 km ( 2 mi) N of The Geysers, CA
map0.72021/07/22 10:07:3933.707N116.695W17.95 4 km ( 3 mi) SSE of Idyllwild, CA
map1.72021/07/22 09:55:5038.488N119.523W4.36 36 km (23 mi) SSW of Smith Valley, NV
map1.22021/07/22 09:54:1038.547N119.429W0.7 27 km (17 mi) SSW of Smith Valley, NV
map1.42021/07/22 09:49:4338.553N119.427W0.4 27 km (17 mi) SSW of Smith Valley, NV
map1.42021/07/22 09:27:5733.260N116.257W5.63 11 km ( 7 mi) E of Borrego Springs, CA
map1.22021/07/22 09:24:2534.167N117.355W3.44 2 km ( 1 mi) NNW of Muscoy, CA
map1.82021/07/22 09:23:3841.319N121.898W2.42 21 km (13 mi) ENE of McCloud, CA
map2.12021/07/22 09:14:1638.546N119.429W-1.56 27 km (17 mi) SSW of Smith Valley, NV
map1.52021/07/22 09:02:2135.579N117.591W4.36 9 km ( 6 mi) ESE of Ridgecrest, CA
map0.32021/07/22 08:57:1435.663N117.530W5.55 14 km ( 9 mi) ENE of Ridgecrest, CA
map0.62021/07/22 08:52:5438.493N119.509W4.4 35 km (22 mi) SSW of Smith Valley, NV
map2.42021/07/22 08:41:3438.521N119.480W6.06 32 km (20 mi) SSW of Smith Valley, NV
map0.82021/07/22 08:40:0936.001N117.795W1.74 12 km ( 8 mi) NE of Little Lake, CA
map2.02021/07/22 08:25:3938.545N119.516W5.62 31 km (19 mi) SSW of Smith Valley, NV
map0.72021/07/22 08:15:2138.151N117.898W8.6 59 km (37 mi) W of Tonopah, NV
map0.92021/07/22 08:14:1938.831N122.814W1.72 8 km ( 5 mi) NW of The Geysers, CA
map1.02021/07/22 08:00:5438.819N122.796W3.02 6 km ( 4 mi) NW of The Geysers, CA
map0.72021/07/22 07:50:2537.630N119.036W-2 5 km ( 3 mi) W of Mammoth Lakes, CA
map1.02021/07/22 07:29:5635.930N117.736W10.04 15 km (10 mi) E of Little Lake, CA
map1.42021/07/22 07:26:3938.536N119.442W1.3 29 km (18 mi) SSW of Smith Valley, NV
map1.32021/07/22 07:23:1037.527N117.739W3.5 61 km (38 mi) ENE of Bishop, CA
map0.82021/07/22 07:11:4235.929N117.734W9.47 16 km (10 mi) E of Little Lake, CA
map0.92021/07/22 07:08:4038.550N119.507W8.6 30 km (18 mi) SSW of Smith Valley, NV
map0.92021/07/22 07:07:4533.053N116.210W7.98 12 km ( 8 mi) SW of Ocotillo Wells, CA
map1.72021/07/22 07:03:1736.091N117.865W2.58 9 km ( 6 mi) NE of Coso Junction, CA
map1.12021/07/22 06:59:3133.051N116.210W8.72 13 km ( 8 mi) SW of Ocotillo Wells, CA
map1.62021/07/22 06:57:0637.673N115.025W3.6 36 km (23 mi) NNE of Alamo, NV
map1.42021/07/22 06:56:5132.795N115.453W8.41 7 km ( 4 mi) WSW of Holtville, CA
map0.82021/07/22 06:54:3636.093N117.871W3.9 9 km ( 5 mi) NE of Coso Junction, CA
map1.12021/07/22 06:52:5838.445N119.387W2.2 38 km (24 mi) S of Smith Valley, NV
map1.32021/07/22 06:52:3132.801N115.457W11.81 7 km ( 5 mi) W of Holtville, CA
map0.62021/07/22 06:48:2533.688N116.790W16.18 9 km ( 5 mi) SW of Idyllwild, CA
map0.62021/07/22 06:47:0537.346N117.656W15.0 60 km (37 mi) ENE of Big Pine, CA
map0.72021/07/22 06:45:3233.580N117.225W15.04 3 km ( 2 mi) NNW of Murrieta, CA
map0.72021/07/22 06:23:1633.905N116.748W15.05 4 km ( 2 mi) ESE of Cabazon, CA
map0.12021/07/22 06:12:4139.402N119.746W6.9 15 km ( 9 mi) S of Sparks, NV
map1.02021/07/22 06:00:2135.676N117.413W4.11 10 km ( 6 mi) S of Searles Valley, CA
map0.02021/07/22 05:54:3038.399N118.383W3.5 25 km (16 mi) SE of Hawthorne, NV
map0.52021/07/22 05:50:5333.683N116.789W16.19 9 km ( 6 mi) SW of Idyllwild, CA
map0.62021/07/22 05:50:4633.686N116.787W16.28 9 km ( 5 mi) SW of Idyllwild, CA
map1.42021/07/22 05:48:2038.552N119.427W0.1 27 km (17 mi) SSW of Smith Valley, NV
map0.52021/07/22 05:40:2138.574N118.432W0.0 17 km (11 mi) ENE of Hawthorne, NV
map1.12021/07/22 05:32:4037.256N121.498W7.57 20 km (12 mi) NE of Morgan Hill, CA
map1.12021/07/22 05:27:1438.423N119.576W4.0 45 km (28 mi) SSW of Smith Valley, NV
map1.02021/07/22 05:23:1938.507N119.547W3.6 35 km (22 mi) SSW of Smith Valley, NV
map1.42021/07/22 05:21:3232.804N115.462W8.5 8 km ( 5 mi) W of Holtville, CA
map1.22021/07/22 05:21:1432.807N115.481W5.41 7 km ( 5 mi) ENE of El Centro, CA
map1.12021/07/22 05:21:1232.804N115.461W8.92 8 km ( 5 mi) W of Holtville, CA
map1.02021/07/22 05:19:4238.489N119.505W9.6 36 km (22 mi) SSW of Smith Valley, NV
map0.72021/07/22 05:19:2333.481N117.080W10.01 6 km ( 4 mi) ESE of Temecula, CA
map0.32021/07/22 04:52:1233.668N116.726W14.27 8 km ( 5 mi) S of Idyllwild, CA
map0.72021/07/22 04:49:4433.675N116.726W15.34 7 km ( 5 mi) S of Idyllwild, CA
map1.12021/07/22 04:45:1235.874N117.679W8.96 22 km (13 mi) ESE of Little Lake, CA
map1.22021/07/22 04:40:4232.789N115.444W8.63 6 km ( 4 mi) WSW of Holtville, CA
map1.02021/07/22 04:26:2138.835N122.809W1.99 8 km ( 5 mi) W of Cobb, CA
map0.82021/07/22 04:23:3438.527N119.548W5.6 34 km (21 mi) SSW of Smith Valley, NV
map0.62021/07/22 04:19:0038.532N119.535W8.8 33 km (20 mi) SSW of Smith Valley, NV
map1.82021/07/22 04:17:1234.422N119.140W15.56 10 km ( 6 mi) ESE of Ojai, CA
map1.02021/07/22 03:55:2338.572N119.509W13.4 28 km (17 mi) SSW of Smith Valley, NV
map1.12021/07/22 03:54:4935.755N117.573W6.6 15 km (10 mi) W of Searles Valley, CA
map2.02021/07/22 03:48:4238.423N119.573W5.19 45 km (28 mi) SSW of Smith Valley, NV
map2.02021/07/22 03:39:3639.773N122.018W6.94 3 km ( 2 mi) N of Hamilton City, CA
map1.32021/07/22 03:39:0638.180N117.894W6.0 59 km (37 mi) WNW of Tonopah, NV
map0.62021/07/22 03:31:2238.530N119.550W7.5 33 km (21 mi) SSW of Smith Valley, NV
map0.42021/07/22 03:24:0733.366N116.409W7.4 13 km ( 8 mi) NNW of Borrego Springs, CA
map0.92021/07/22 02:56:3738.577N119.446W0.0 25 km (15 mi) SSW of Smith Valley, NV
map1.02021/07/22 02:54:0938.835N122.808W2.1 7 km ( 5 mi) W of Cobb, CA
map1.42021/07/22 02:48:5539.011N123.307W4.39 5 km ( 3 mi) E of Boonville, CA
map0.62021/07/22 02:41:2138.823N122.805W2.32 7 km ( 4 mi) NW of The Geysers, CA
map1.02021/07/22 02:27:3538.502N119.496W5.7 34 km (21 mi) SSW of Smith Valley, NV
map0.92021/07/22 02:16:4938.249N118.736W9.8 32 km (20 mi) SSW of Hawthorne, NV
map0.22021/07/22 02:16:4033.595N116.808W4.78 13 km ( 8 mi) WNW of Anza, CA
map0.72021/07/22 01:59:3238.685N119.618W14.1 25 km (16 mi) SSE of Gardnerville Ranchos, NV
map2.02021/07/22 01:57:5934.721N120.436W2.6 3 km ( 2 mi) ENE of Vandenberg Village, CA
map0.82021/07/22 01:50:0234.360N116.740W3.36 15 km ( 9 mi) NE of Big Bear City, CA
map0.82021/07/22 01:19:0335.509N120.799W6.33 10 km ( 6 mi) WSW of Templeton, CA
map1.82021/07/22 01:18:3038.171N117.775W6.6 49 km (30 mi) WNW of Tonopah, NV
map0.62021/07/22 01:07:0038.168N118.250W1.5 51 km (32 mi) SE of Hawthorne, NV
map0.22021/07/22 00:57:2833.416N116.594W8.58 15 km (10 mi) NNE of Warner Springs, CA
map1.82021/07/22 00:40:2738.549N119.456W7.88 28 km (17 mi) SSW of Smith Valley, NV
map1.12021/07/22 00:38:1435.766N117.580W6.75 16 km (10 mi) W of Searles Valley, CA
map1.32021/07/22 00:36:1938.527N119.486W6.9 31 km (19 mi) SSW of Smith Valley, NV
map1.22021/07/22 00:35:4637.614N118.953W0.36 3 km ( 2 mi) SE of Mammoth Lakes, CA
map1.02021/07/22 00:08:3633.531N116.733W2.75 6 km ( 4 mi) WSW of Anza, CA
map1.22021/07/22 00:04:1838.563N119.430W0.0 26 km (16 mi) SSW of Smith Valley, NV
map1.02021/07/21 23:53:1039.129N120.005W7.1 10 km ( 7 mi) SE of Dollar Point, CA
map0.52021/07/21 23:51:3838.877N119.133W8.2 12 km ( 8 mi) SSE of Yerington, NV
map1.92021/07/21 23:50:5132.963N115.535W10.97 2 km ( 1 mi) SSW of Brawley, CA
map0.22021/07/21 23:49:5933.478N117.083W11.41 6 km ( 4 mi) ESE of Temecula, CA
map2.12021/07/21 23:38:4538.537N119.539W5.01 32 km (20 mi) SSW of Smith Valley, NV
map0.42021/07/21 23:37:0638.834N122.801W1.89 7 km ( 4 mi) WNW of Cobb, CA
map1.22021/07/21 23:20:1538.494N119.496W7.6 35 km (22 mi) SSW of Smith Valley, NV
map0.72021/07/21 23:08:3938.539N119.543W6.7 32 km (20 mi) SSW of Smith Valley, NV
map1.42021/07/21 23:00:1135.605N117.465W10.64 19 km (12 mi) SSW of Searles Valley, CA
map1.32021/07/21 22:59:1835.706N117.542W9.88 14 km ( 9 mi) WSW of Searles Valley, CA
map1.02021/07/21 22:59:1335.710N117.545W9.27 14 km ( 9 mi) WSW of Searles Valley, CA
map2.52021/07/21 22:50:3040.426N125.730W10125 km (78 mi) W of Ferndale, CA
map1.32021/07/21 22:42:0932.803N115.463W7.88 8 km ( 5 mi) W of Holtville, CA
map0.72021/07/21 22:37:3037.486N117.745W9.6 59 km (37 mi) ENE of Bishop, CA
map1.22021/07/21 22:35:2338.149N117.896W9.7 59 km (37 mi) W of Tonopah, NV
map1.12021/07/21 22:22:2338.469N119.536W7.8 39 km (24 mi) SSW of Smith Valley, NV
map0.92021/07/21 22:20:4038.543N119.552W8.8 32 km (20 mi) SW of Smith Valley, NV
map2.02021/07/21 22:18:0138.547N119.450W-1.84 28 km (17 mi) SSW of Smith Valley, NV
map1.62021/07/21 22:15:2232.807N115.458W9.34 7 km ( 5 mi) W of Holtville, CA
map1.02021/07/21 22:01:3238.522N119.473W4.9 31 km (19 mi) SSW of Smith Valley, NV
map1.02021/07/21 21:53:1635.590N117.430W4.08 20 km (12 mi) S of Searles Valley, CA
map2.12021/07/21 21:37:0532.809N115.464W8.48 8 km ( 5 mi) W of Holtville, CA
map2.92021/07/21 21:29:1932.813N115.466W14.07 8 km ( 5 mi) W of Holtville, CA
map1.92021/07/21 21:21:4632.806N115.454W8.42 7 km ( 4 mi) W of Holtville, CA
map0.92021/07/21 21:13:2335.780N117.594W9.45 17 km (11 mi) W of Searles Valley, CA
map0.72021/07/21 21:08:0238.836N122.800W1.93 7 km ( 4 mi) WNW of Cobb, CA
map0.82021/07/21 21:02:2534.033N117.039W13.47 0 km ( 0 mi) ESE of Yucaipa, CA
map0.92021/07/21 20:59:5235.776N117.577W10.38 16 km (10 mi) W of Searles Valley, CA
map1.32021/07/21 20:54:5432.800N115.455W7.89 7 km ( 4 mi) W of Holtville, CA
map1.12021/07/21 20:54:4332.782N115.449W6.16 7 km ( 4 mi) WSW of Holtville, CA
map1.32021/07/21 20:54:3432.813N115.460W7.8 7 km ( 5 mi) W of Holtville, CA
map1.12021/07/21 20:54:2632.808N115.457W7.52 7 km ( 4 mi) W of Holtville, CA
map0.32021/07/21 20:53:3839.467N120.312W13.3 19 km (12 mi) NW of Truckee, CA
MAP3.02021/07/21 20:50:5032.812N115.460W11.68 7 km ( 5 mi) W of Holtville, CA
map2.42021/07/21 20:50:1432.814N115.465W9.63 8 km ( 5 mi) W of Holtville, CA
map2.92021/07/21 20:48:1132.813N115.464W11.27 8 km ( 5 mi) W of Holtville, CA
map1.12021/07/21 20:26:3238.780N122.924W3 9 km ( 5 mi) ESE of Cloverdale, CA
map1.42021/07/21 20:25:3635.651N117.553W11.3 12 km ( 7 mi) ENE of Ridgecrest, CA
map1.12021/07/21 20:22:1138.545N119.359W1.8 27 km (17 mi) S of Smith Valley, NV
map0.72021/07/21 20:22:1033.175N116.378W7.53 9 km ( 6 mi) S of Borrego Springs, CA
map0.82021/07/21 20:19:4835.340N117.798W3.73 15 km ( 9 mi) WSW of Johannesburg, CA
map0.62021/07/21 20:19:4033.685N116.791W16.23 9 km ( 6 mi) SW of Idyllwild, CA
map2.82021/07/21 20:12:0338.809N119.797W6.28 10 km ( 6 mi) SSW of Gardnerville Ranchos, NV
map1.32021/07/21 20:11:1838.424N119.577W2.9 45 km (28 mi) SSW of Smith Valley, NV
map0.52021/07/21 20:08:4336.129N117.868W5.07 12 km ( 7 mi) NE of Coso Junction, CA
map0.72021/07/21 20:04:3537.484N117.743W8.5 59 km (37 mi) ENE of Bishop, CA
map1.22021/07/21 20:03:1138.507N119.571W4.7 37 km (23 mi) SSW of Smith Valley, NV
map0.52021/07/21 20:01:3838.820N122.804W2.64 6 km ( 4 mi) NW of The Geysers, CA
map0.72021/07/21 19:57:2038.548N119.422W0.3 27 km (17 mi) SSW of Smith Valley, NV
map0.92021/07/21 19:52:2638.827N122.854W2.63 10 km ( 6 mi) WNW of The Geysers, CA
map2.02021/07/21 19:48:5734.222N117.582W6.44 9 km ( 5 mi) WSW of Lytle Creek, CA
map0.92021/07/21 19:47:2733.964N117.145W17.54 9 km ( 5 mi) ENE of Moreno Valley, CA
map1.12021/07/21 19:44:4538.495N119.498W6.6 35 km (22 mi) SSW of Smith Valley, NV
map1.62021/07/21 19:29:3836.392N121.676W6.69 15 km ( 9 mi) SSE of Carmel Valley Village, CA
map1.72021/07/21 19:24:1332.800N115.454W9.31 7 km ( 4 mi) W of Holtville, CA
map0.52021/07/21 19:23:2136.006N117.802W1.82 12 km ( 8 mi) NE of Little Lake, CA
map0.92021/07/21 19:15:2237.536N118.784W6.75 20 km (13 mi) ESE of Mammoth Lakes, CA
map1.32021/07/21 19:04:1638.542N119.453W1.4 29 km (18 mi) SSW of Smith Valley, NV
map1.92021/07/21 19:00:4938.533N119.519W6.3 32 km (20 mi) SSW of Smith Valley, NV
map2.22021/07/21 18:59:3232.967N115.536W11.14 1 km ( 1 mi) SSW of Brawley, CA
map2.12021/07/21 18:56:3438.521N119.422W-1.8 30 km (19 mi) SSW of Smith Valley, NV
map0.82021/07/21 18:52:2534.313N116.174W1.76 22 km (13 mi) NNW of Twentynine Palms, CA
map0.72021/07/21 18:47:3238.814N122.815W2.85 7 km ( 4 mi) NW of The Geysers, CA
map0.72021/07/21 18:44:0237.602N118.981W6.04 4 km ( 2 mi) S of Mammoth Lakes, CA
map1.32021/07/21 18:30:1538.372N118.904W8.7 30 km (19 mi) SW of Hawthorne, NV
map1.72021/07/21 18:23:5733.390N116.391W6.76 15 km ( 9 mi) N of Borrego Springs, CA
map0.92021/07/21 18:15:3934.210N116.840W8.04 6 km ( 4 mi) S of Big Bear City, CA
map1.12021/07/21 18:13:1138.810N122.739W2.21 2 km ( 1 mi) SW of Cobb, CA
map0.82021/07/21 18:12:2438.554N119.496W6.8 29 km (18 mi) SSW of Smith Valley, NV
map1.12021/07/21 18:07:4736.101N117.860W3.67 10 km ( 6 mi) NE of Coso Junction, CA
map2.82021/07/21 17:56:0138.166N122.516W9.71 6 km ( 3 mi) N of Black Point-Green Point, CA
map1.12021/07/21 17:52:2334.143N118.460W5.13 1 km ( 1 mi) SW of Sherman Oaks, CA
map1.52021/07/21 17:45:3633.488N116.767W8.37 10 km ( 6 mi) ENE of Aguanga, CA
map0.82021/07/21 17:37:5733.559N117.038W11.82 11 km ( 7 mi) E of Murrieta Hot Springs, CA
map0.32021/07/21 17:36:2833.578N116.806W6.07 13 km ( 8 mi) WNW of Anza, CA
map0.82021/07/21 17:27:1333.511N116.504W14.34 16 km (10 mi) ESE of Anza, CA
map0.72021/07/21 17:25:5938.440N119.481W5.8 40 km (25 mi) SSW of Smith Valley, NV
MAP3.42021/07/21 16:33:3838.518N119.523W3.06 33 km (21 mi) SSW of Smith Valley, NV
map2.02021/07/21 16:32:5938.523N119.491W7.5 32 km (20 mi) SSW of Smith Valley, NV
map0.42021/07/21 16:26:0238.815N122.822W2.25 7 km ( 4 mi) NW of The Geysers, CA
map1.72021/07/21 16:22:2035.044N117.662W0.32 2 km ( 1 mi) NE of Quarry at BORON (Probable quarry explosion)
map0.72021/07/21 16:20:3238.841N122.762W0.65 4 km ( 2 mi) WNW of Cobb, CA
map0.62021/07/21 16:09:2735.876N117.698W7.84 20 km (12 mi) ESE of Little Lake, CA
map2.42021/07/21 16:02:0038.548N119.523W3.92 31 km (19 mi) SSW of Smith Valley, NV
map1.32021/07/21 15:49:4832.987N115.528W6.15 1 km ( 1 mi) N of Brawley, CA
map1.02021/07/21 15:44:5433.847N117.765W6.24 6 km ( 4 mi) NE of Villa Park, CA
map1.82021/07/21 15:44:0838.173N118.236W1.3 52 km (32 mi) SE of Hawthorne, NV
map1.02021/07/21 15:42:0932.607N116.977W2.08 1 km ( 0 mi) WSW of Quarry at SYS-1 (Probable quarry explosion)
map1.12021/07/21 15:40:4038.534N119.508W6.6 31 km (19 mi) SSW of Smith Valley, NV
map1.22021/07/21 15:12:0838.834N122.820W1.72 8 km ( 5 mi) NW of The Geysers, CA
map1.52021/07/21 15:10:2933.697N116.819W15.48 9 km ( 6 mi) SE of Valle Vista, CA
map1.42021/07/21 15:09:4035.782N117.590W8.05 17 km (10 mi) W of Searles Valley, CA
map0.42021/07/21 15:07:1738.835N122.823W2.34 9 km ( 5 mi) NW of The Geysers, CA
map0.42021/07/21 14:56:4838.836N122.818W1.51 8 km ( 5 mi) W of Cobb, CA
map2.32021/07/21 14:56:1438.827N122.822W1.63 8 km ( 5 mi) NW of The Geysers, CA
map2.52021/07/21 14:56:1138.833N122.820W0.93 8 km ( 5 mi) NW of The Geysers, CA
map1.12021/07/21 14:53:0238.791N122.737W1.52 2 km ( 1 mi) NE of The Geysers, CA
map1.32021/07/21 14:32:0038.558N119.512W6.8 29 km (18 mi) SSW of Smith Valley, NV
map2.62021/07/21 14:25:3238.143N118.021W3.5 68 km (42 mi) SE of Hawthorne, NV
map1.32021/07/21 14:24:4138.147N118.018W2.5 67 km (42 mi) SE of Hawthorne, NV
map1.52021/07/21 14:11:2138.629N117.090W4.2 63 km (39 mi) N of Tonopah, NV
map0.72021/07/21 14:06:3433.375N116.350W4.59 13 km ( 8 mi) N of Borrego Springs, CA
map1.22021/07/21 13:58:5834.471N116.226W0.7 29 km (18 mi) SSW of Ludlow, CA
map1.52021/07/21 13:38:5035.677N117.550W4.88 13 km ( 8 mi) ENE of Ridgecrest, CA
map1.02021/07/21 13:26:5733.871N117.503W2.23 2 km ( 1 mi) N of Quarry at CORONA (Probable quarry explosion)
map1.92021/07/21 12:36:1738.526N119.481W6.05 31 km (19 mi) SSW of Smith Valley, NV
map1.22021/07/21 12:30:4433.864N117.505W-0.54 2 km ( 1 mi) NNW of Quarry at CORONA (Probable quarry explosion)
map0.52021/07/21 12:26:4938.805N122.826W3.12 7 km ( 4 mi) WNW of The Geysers, CA
map1.12021/07/21 12:21:1038.490N119.477W8.0 35 km (22 mi) SSW of Smith Valley, NV
map1.02021/07/21 12:04:4434.988N118.183W-0.95 3 km ( 2 mi) SSW of Quarry at TPO-DBM (Probable quarry explosion)
map0.72021/07/21 11:58:2733.336N116.373W9 9 km ( 6 mi) N of Borrego Springs, CA
map1.12021/07/21 11:58:0138.825N122.812W2.29 7 km ( 4 mi) NW of The Geysers, CA
map1.62021/07/21 11:40:4332.752N115.812W5.63 17 km (11 mi) E of Ocotillo, CA
map1.02021/07/21 11:39:3938.502N119.533W3.6 35 km (22 mi) SSW of Smith Valley, NV
map0.32021/07/21 11:35:5035.857N117.683W8.86 22 km (14 mi) ESE of Little Lake, CA
map1.22021/07/21 11:24:0938.169N118.243W1.7 52 km (32 mi) SE of Hawthorne, NV
map1.02021/07/21 11:23:2938.381N118.896W0.0 29 km (18 mi) SW of Hawthorne, NV
map1.52021/07/21 11:20:2239.134N120.026W3.88 9 km ( 5 mi) SE of Dollar Point, CA
map2.52021/07/21 11:13:0738.116N118.093W2.8 65 km (40 mi) SE of Hawthorne, NV
map0.82021/07/21 10:54:5432.760N115.818W6.77 17 km (10 mi) E of Ocotillo, CA
map1.12021/07/21 10:54:2738.567N119.583W5.1 32 km (20 mi) SW of Smith Valley, NV
map0.92021/07/21 10:35:4938.825N122.812W2.45 7 km ( 4 mi) NW of The Geysers, CA
map0.82021/07/21 10:34:5935.787N117.593W7.55 17 km (11 mi) W of Searles Valley, CA
map1.22021/07/21 10:09:4438.186N117.758W9.9 48 km (30 mi) WNW of Tonopah, NV
map0.62021/07/21 10:09:0239.380N119.740W5.7 17 km (11 mi) S of Sparks, NV
map0.92021/07/21 10:01:1738.834N122.806W1.81 7 km ( 5 mi) W of Cobb, CA
map1.12021/07/21 09:49:3838.514N119.530W9.8 34 km (21 mi) SSW of Smith Valley, NV
map0.52021/07/21 09:38:3133.525N116.547W13.18 12 km ( 8 mi) ESE of Anza, CA
map1.22021/07/21 08:57:3138.143N118.258W0.0 53 km (33 mi) SE of Hawthorne, NV
map0.72021/07/21 08:52:0133.331N116.402W4.89 9 km ( 5 mi) NNW of Borrego Springs, CA
map1.32021/07/21 08:30:3833.167N116.375W7.38 10 km ( 6 mi) S of Borrego Springs, CA
map2.42021/07/21 08:22:5938.156N118.248W7.2 53 km (33 mi) SE of Hawthorne, NV
map1.52021/07/21 08:12:1638.146N118.254W0.7 53 km (33 mi) SE of Hawthorne, NV
map0.62021/07/21 08:04:2133.484N116.442W12.43 23 km (14 mi) ESE of Anza, CA
map0.72021/07/21 07:54:0835.908N117.684W7.94 20 km (13 mi) E of Little Lake, CA
map1.12021/07/21 07:36:1235.918N117.719W10.07 17 km (11 mi) E of Little Lake, CA
map2.12021/07/21 07:14:4238.535N119.452W4.47 29 km (18 mi) SSW of Smith Valley, NV
map1.72021/07/21 07:11:2937.895N121.648W3.96 3 km ( 2 mi) NNW of Byron, CA
map0.32021/07/21 07:08:1235.913N117.721W8.95 17 km (11 mi) E of Little Lake, CA
map0.22021/07/21 07:02:1238.407N118.387W3.8 24 km (15 mi) ESE of Hawthorne, NV
map2.32021/07/21 07:00:4838.433N119.487W4.66 41 km (25 mi) SSW of Smith Valley, NV
map1.62021/07/21 06:52:2837.487N118.079W16.0 31 km (19 mi) ENE of Bishop, CA
map1.02021/07/21 06:29:4338.550N119.532W7.4 31 km (19 mi) SSW of Smith Valley, NV
map1.72021/07/21 06:25:2340.652N123.736W26.32 33 km (20 mi) ENE of Hydesville, CA
map2.02021/07/21 06:14:2938.142N117.970W8.3 65 km (41 mi) W of Tonopah, NV
map1.42021/07/21 06:13:5438.184N118.238W2.1 51 km (32 mi) SE of Hawthorne, NV
map1.42021/07/21 06:03:4638.528N119.445W2.5 30 km (18 mi) SSW of Smith Valley, NV
map1.22021/07/21 05:58:2137.828N118.629W7.0 37 km (23 mi) NE of Mammoth Lakes, CA
map1.12021/07/21 05:46:2538.773N122.934W2.25 8 km ( 5 mi) ESE of Cloverdale, CA
map0.22021/07/21 05:46:0435.873N117.683W4.84 21 km (13 mi) ESE of Little Lake, CA
map1.12021/07/21 05:45:4838.155N118.265W0.8 52 km (32 mi) SE of Hawthorne, NV
map1.22021/07/21 05:45:3238.781N122.919W3.8 9 km ( 6 mi) ESE of Cloverdale, CA
map1.92021/07/21 05:44:2438.782N122.918W4.04 9 km ( 6 mi) ESE of Cloverdale, CA
map1.02021/07/21 05:43:1738.553N119.457W0.8 27 km (17 mi) SSW of Smith Valley, NV
map0.82021/07/21 05:33:4439.959N120.794W5.5 9 km ( 6 mi) ENE of East Quincy, CA
map1.72021/07/21 05:31:5238.154N118.247W7.8 53 km (33 mi) SE of Hawthorne, NV
map2.62021/07/21 05:25:5840.431N124.733W24.17 43 km (27 mi) WSW of Ferndale, CA
map1.22021/07/21 05:21:5738.781N122.918W3.52 9 km ( 6 mi) ESE of Cloverdale, CA
map0.92021/07/21 05:16:1238.554N119.472W5.1 28 km (17 mi) SSW of Smith Valley, NV
map1.32021/07/21 05:14:0638.149N118.256W2.2 53 km (33 mi) SE of Hawthorne, NV
map1.32021/07/21 05:11:3738.152N118.252W1.6 53 km (33 mi) SE of Hawthorne, NV
map1.02021/07/21 05:10:1138.148N118.259W0.0 53 km (33 mi) SE of Hawthorne, NV
MAP3.92021/07/21 05:04:1838.157N118.240W7.7 53 km (33 mi) SE of Hawthorne, NV
map1.42021/07/21 05:02:1238.781N122.919W3.24 9 km ( 6 mi) ESE of Cloverdale, CA
map2.32021/07/21 04:58:1738.436N119.479W3.65 40 km (25 mi) SSW of Smith Valley, NV
map1.22021/07/21 04:51:0038.164N117.842W7.6 55 km (34 mi) W of Tonopah, NV
map1.32021/07/21 04:49:1338.520N119.443W0.9 31 km (19 mi) SSW of Smith Valley, NV
map0.92021/07/21 04:43:2138.834N122.808W2.08 7 km ( 5 mi) W of Cobb, CA
map1.32021/07/21 04:38:2938.518N119.443W0.8 31 km (19 mi) SSW of Smith Valley, NV
map0.12021/07/21 04:32:4233.679N116.709W15.67 7 km ( 4 mi) S of Idyllwild, CA
map1.02021/07/21 04:32:3833.038N116.370W13.15 22 km (14 mi) ESE of Julian, CA
map1.52021/07/21 04:28:3838.516N119.439W1.4 31 km (19 mi) SSW of Smith Valley, NV
map0.72021/07/21 04:27:1135.862N117.691W8.28 21 km (13 mi) ESE of Little Lake, CA
map2.32021/07/21 04:26:5038.518N119.439W-0.77 31 km (19 mi) SSW of Smith Valley, NV
map1.32021/07/21 04:24:5338.523N119.444W0.0 30 km (19 mi) SSW of Smith Valley, NV
map0.62021/07/21 04:08:1336.066N117.994W3.25 5 km ( 3 mi) WNW of Coso Junction, CA
map0.82021/07/21 04:08:0438.405N119.665W14.1 51 km (31 mi) SW of Smith Valley, NV
map1.32021/07/21 03:53:0338.535N119.514W2.2 31 km (19 mi) SSW of Smith Valley, NV
map1.72021/07/21 03:45:1740.468N124.398W25.48 17 km (10 mi) SW of Ferndale, CA
map1.32021/07/21 03:42:5238.523N119.512W6.0 32 km (20 mi) SSW of Smith Valley, NV
map2.82021/07/21 03:36:3840.423N124.867W18.91 54 km (33 mi) WSW of Ferndale, CA
map0.82021/07/21 03:35:5838.556N119.527W9.7 30 km (19 mi) SSW of Smith Valley, NV
map0.92021/07/21 03:35:0036.589N121.184W6.56 22 km (14 mi) NE of Soledad, CA
map1.92021/07/21 03:28:4933.885N118.250W11.85 3 km ( 2 mi) WSW of Compton, CA
map1.22021/07/21 03:14:0838.516N119.524W5.6 34 km (21 mi) SSW of Smith Valley, NV
MAP4.42021/07/21 03:05:3040.277N124.413W35.38 36 km (22 mi) SSW of Ferndale, CA
map2.22021/07/21 03:05:1538.809N122.738W1.96 2 km ( 1 mi) SW of Cobb, CA
map1.02021/07/21 02:54:1838.146N117.888W10.0 58 km (36 mi) W of Tonopah, NV
map1.32021/07/21 02:49:0240.782N122.155W13.31 17 km (11 mi) NNE of Bella Vista, CA
map0.82021/07/21 02:41:4138.553N119.428W2.5 27 km (17 mi) SSW of Smith Valley, NV
map2.62021/07/21 02:36:1338.542N119.453W-1.12 29 km (18 mi) SSW of Smith Valley, NV
map0.92021/07/21 02:35:5938.818N122.822W2.29 7 km ( 5 mi) NW of The Geysers, CA
map1.02021/07/21 02:28:3638.454N119.542W10.1 41 km (25 mi) SSW of Smith Valley, NV
map0.92021/07/21 02:26:0138.517N119.399W3.7 30 km (19 mi) S of Smith Valley, NV
map1.02021/07/21 02:20:1740.433N119.625W19.2 78 km (48 mi) ENE of Janesville, CA
map1.72021/07/21 02:14:1338.799N122.813W0.92 5 km ( 3 mi) WNW of The Geysers, CA
map0.92021/07/21 02:09:3438.557N119.451W0.9 27 km (17 mi) SSW of Smith Valley, NV
map1.02021/07/21 02:05:2638.419N119.564W9.9 45 km (28 mi) SSW of Smith Valley, NV
map0.62021/07/21 02:02:3039.009N119.639W8.9 8 km ( 5 mi) ESE of Johnson Lane, NV
map0.92021/07/21 01:58:5738.535N119.454W3.0 29 km (18 mi) SSW of Smith Valley, NV
map1.52021/07/21 01:45:4838.808N122.786W-0.09 4 km ( 3 mi) NW of The Geysers, CA
map0.82021/07/21 01:36:4539.029N119.132W0.0 6 km ( 3 mi) NNE of Yerington, NV
map0.32021/07/21 01:25:4835.878N117.676W5.65 22 km (14 mi) ESE of Little Lake, CA
map0.62021/07/21 01:24:0834.135N116.856W8.63 13 km ( 8 mi) SSE of Big Bear Lake, CA
map0.22021/07/21 01:21:5133.609N116.802W7.72 13 km ( 8 mi) WNW of Anza, CA
map1.02021/07/21 01:21:2135.970N120.953W8.39 28 km (17 mi) NNW of Lake Nacimiento, CA
map2.22021/07/21 01:08:2740.508N119.692W1.1 74 km (46 mi) ENE of Janesville, CA
map0.42021/07/21 01:01:3635.780N117.591W8.57 17 km (11 mi) W of Searles Valley, CA
map0.22021/07/21 00:59:4333.675N116.793W14.81 10 km ( 6 mi) SW of Idyllwild, CA
map1.42021/07/21 00:58:2738.274N118.568W15.1 28 km (18 mi) S of Hawthorne, NV
map0.32021/07/21 00:57:2035.895N117.705W10.03 19 km (12 mi) ESE of Little Lake, CA
map2.32021/07/21 00:51:3938.778N122.921W3.99 9 km ( 6 mi) ESE of Cloverdale, CA
map1.72021/07/21 00:47:0632.772N115.444W10.57 7 km ( 5 mi) SW of Holtville, CA
map0.62021/07/21 00:38:1038.527N119.497W9.0 32 km (20 mi) SSW of Smith Valley, NV
map0.92021/07/21 00:34:5738.758N122.717W1.46 4 km ( 2 mi) ESE of The Geysers, CA
map1.22021/07/21 00:32:5438.784N122.920W3.41 9 km ( 5 mi) ESE of Cloverdale, CA
map2.32021/07/21 00:28:4738.155N118.253W3.5 52 km (33 mi) SE of Hawthorne, NV
map1.12021/07/21 00:01:1138.465N119.463W7.8 37 km (23 mi) SSW of Smith Valley, NV
map0.32021/07/20 23:49:5733.554N116.421W9.8 16 km (10 mi) SW of La Quinta, CA
map0.72021/07/20 23:41:2238.811N122.794W3.63 5 km ( 3 mi) NW of The Geysers, CA
map1.22021/07/20 23:37:3138.529N119.410W2.5 29 km (18 mi) S of Smith Valley, NV
map1.02021/07/20 23:35:4338.838N122.822W1.82 9 km ( 5 mi) WNW of Cobb, CA
map1.22021/07/20 23:33:1334.130N118.459W6.83 2 km ( 1 mi) SSW of Sherman Oaks, CA
map0.92021/07/20 23:28:2938.181N117.728W0.0 45 km (28 mi) WNW of Tonopah, NV
map0.42021/07/20 23:23:1133.495N116.478W13.2 19 km (12 mi) ESE of Anza, CA
map0.42021/07/20 23:19:5933.494N116.473W14.3 20 km (12 mi) ESE of Anza, CA
map0.72021/07/20 23:09:2638.803N122.816W2.87 6 km ( 4 mi) WNW of The Geysers, CA
map1.22021/07/20 23:08:3838.540N119.502W4.0 30 km (19 mi) SSW of Smith Valley, NV
map0.82021/07/20 23:08:1638.490N119.543W10.4 37 km (23 mi) SSW of Smith Valley, NV
map0.72021/07/20 23:08:0735.875N117.693W9.56 20 km (13 mi) ESE of Little Lake, CA
map1.02021/07/20 23:07:1638.500N119.543W9.5 36 km (22 mi) SSW of Smith Valley, NV
map1.02021/07/20 23:03:0138.515N119.526W6.8 34 km (21 mi) SSW of Smith Valley, NV
map0.42021/07/20 22:49:2833.479N116.516W13.65 17 km (10 mi) ESE of Anza, CA
map0.82021/07/20 22:40:1432.942N116.421W4.97 17 km (10 mi) NE of Pine Valley, CA
map0.72021/07/20 22:36:2736.008N117.803W1.37 12 km ( 8 mi) NE of Little Lake, CA
map1.92021/07/20 22:36:1638.396N122.651W8.89 7 km ( 5 mi) ESE of Roseland, CA
map1.62021/07/20 22:35:1238.549N119.522W4.24 30 km (19 mi) SSW of Smith Valley, NV
map0.52021/07/20 22:28:4735.877N117.698W8.22 20 km (12 mi) ESE of Little Lake, CA
map0.72021/07/20 22:28:2236.077N117.632W3.42 29 km (18 mi) E of Coso Junction, CA
map1.72021/07/20 22:18:1938.757N122.732W1.54 3 km ( 2 mi) SE of The Geysers, CA
map0.22021/07/20 22:12:0533.593N116.803W7.71 13 km ( 8 mi) WNW of Anza, CA
map0.72021/07/20 21:55:2938.170N117.897W11.2 59 km (37 mi) W of Tonopah, NV
map1.32021/07/20 21:53:5338.520N119.486W3.6 32 km (20 mi) SSW of Smith Valley, NV
map1.32021/07/20 21:50:1638.508N119.525W6.8 35 km (21 mi) SSW of Smith Valley, NV
map1.12021/07/20 21:50:0634.138N118.461W5.15 2 km ( 1 mi) SW of Sherman Oaks, CA
map0.92021/07/20 21:49:5138.149N117.833W3.6 53 km (33 mi) W of Tonopah, NV
map1.72021/07/20 21:38:1438.540N119.519W3.5 31 km (19 mi) SSW of Smith Valley, NV
map1.02021/07/20 21:32:0638.478N119.526W6.5 38 km (23 mi) SSW of Smith Valley, NV
map1.02021/07/20 21:29:1938.470N119.528W7.2 38 km (24 mi) SSW of Smith Valley, NV
map0.22021/07/20 21:26:5438.442N119.485W3.3 40 km (25 mi) SSW of Smith Valley, NV
map2.92021/07/20 21:21:0938.517N119.484W4.06 32 km (20 mi) SSW of Smith Valley, NV
map0.82021/07/20 21:16:5738.540N119.465W3.7 29 km (18 mi) SSW of Smith Valley, NV
map1.22021/07/20 21:10:3538.424N119.511W1.1 43 km (26 mi) SSW of Smith Valley, NV
map1.02021/07/20 20:53:5338.465N119.650W14.2 44 km (28 mi) SW of Smith Valley, NV
MAP3.02021/07/20 20:50:1138.515N119.495W4.11 33 km (20 mi) SSW of Smith Valley, NV
map0.62021/07/20 20:45:4734.060N116.697W9.02 11 km ( 7 mi) W of Morongo Valley, CA
map1.52021/07/20 20:41:5438.535N119.533W6.2 32 km (20 mi) SSW of Smith Valley, NV
map2.22021/07/20 20:40:2536.562N120.369W6.09 17 km (10 mi) WSW of San Joaquin, CA
map1.12021/07/20 20:21:4038.130N118.029W0.8 68 km (42 mi) SE of Hawthorne, NV
map0.42021/07/20 19:55:5238.836N122.810W1.76 8 km ( 5 mi) WNW of Cobb, CA
map1.42021/07/20 19:46:1238.483N119.547W4.5 38 km (24 mi) SSW of Smith Valley, NV
map1.32021/07/20 19:41:1136.779N121.520W8.64 8 km ( 5 mi) SSE of San Juan Bautista, CA
map0.72021/07/20 19:38:5035.756N117.558W6.62 14 km ( 9 mi) W of Searles Valley, CA
map0.72021/07/20 19:37:2933.473N116.457W12.56 22 km (14 mi) ESE of Anza, CA
map1.32021/07/20 19:34:1033.600N116.805W7.74 13 km ( 8 mi) WNW of Anza, CA
map0.52021/07/20 19:06:3238.797N122.797W0.67 4 km ( 3 mi) WNW of The Geysers, CA
map2.72021/07/20 18:57:2840.715N123.896W24.17 20 km (12 mi) SE of Bayside, CA
map1.32021/07/20 18:48:4438.041N118.754W-2.13 49 km (30 mi) NNE of Mammoth Lakes, CA
map1.12021/07/20 18:37:4336.091N118.383W5.08 38 km (23 mi) N of Kernville, CA
map0.62021/07/20 18:33:3035.874N117.698W7.75 20 km (12 mi) ESE of Little Lake, CA
map1.22021/07/20 18:31:4938.526N119.495W6.4 32 km (20 mi) SSW of Smith Valley, NV
map2.92021/07/20 18:29:1636.779N121.529W9.71 7 km ( 5 mi) S of San Juan Bautista, CA
map0.92021/07/20 18:26:0036.781N121.520W8.32 7 km ( 5 mi) SSE of San Juan Bautista, CA
map0.62021/07/20 18:18:1636.886N117.448W7.0 41 km (26 mi) NW of Stovepipe Wells, CA
map0.42021/07/20 18:17:0140.225N119.733W14.4 64 km (40 mi) NNE of Cold Springs, NV
map0.92021/07/20 18:15:1737.340N121.688W6.95 12 km ( 8 mi) ESE of East Foothills, CA
map0.72021/07/20 18:07:1435.878N117.698W8.54 20 km (12 mi) ESE of Little Lake, CA
map0.82021/07/20 17:43:2633.039N116.419W10.42 18 km (11 mi) ESE of Julian, CA
map1.22021/07/20 17:20:2234.029N116.321W8.6 12 km ( 7 mi) S of Joshua Tree, CA
map0.42021/07/20 17:13:2138.822N122.847W1.58 9 km ( 6 mi) WNW of The Geysers, CA
map0.92021/07/20 17:11:0738.544N119.460W2.7 29 km (18 mi) SSW of Smith Valley, NV
map1.42021/07/20 16:52:5134.378N116.451W9.16 29 km (18 mi) N of Yucca Valley, CA
map0.82021/07/20 16:52:0238.147N118.029W3.8 67 km (41 mi) SE of Hawthorne, NV
map2.22021/07/20 16:50:0238.142N118.029W3.8 67 km (42 mi) SE of Hawthorne, NV
map1.22021/07/20 16:37:3238.024N118.865W4.17 44 km (27 mi) NNE of Mammoth Lakes, CA
map1.32021/07/20 16:32:4133.257N116.198W11.23 14 km ( 9 mi) NNW of Ocotillo Wells, CA
map1.12021/07/20 16:16:5538.500N119.531W3.8 36 km (22 mi) SSW of Smith Valley, NV
map1.92021/07/20 16:16:2938.527N119.518W3.83 32 km (20 mi) SSW of Smith Valley, NV
map2.12021/07/20 16:16:2938.529N119.525W4.03 32 km (20 mi) SSW of Smith Valley, NV
map1.62021/07/20 16:13:4835.037N117.683W-0.82 1 km ( 1 mi) NNW of Quarry at BORON (Probable quarry explosion)
map2.02021/07/20 16:12:2238.517N119.539W5.46 34 km (21 mi) SSW of Smith Valley, NV
map1.12021/07/20 15:55:5935.799N117.622W6.67 20 km (12 mi) W of Searles Valley, CA
map0.82021/07/20 15:51:0935.877N117.698W8.57 20 km (12 mi) ESE of Little Lake, CA
map0.92021/07/20 15:46:3033.324N116.280W9.25 12 km ( 7 mi) NE of Borrego Springs, CA
map0.72021/07/20 15:38:2838.154N117.947W11.6 63 km (39 mi) W of Tonopah, NV
map-0.12021/07/20 15:21:0538.543N119.474W0.76 29 km (18 mi) SSW of Smith Valley, NV
map0.52021/07/20 14:55:0936.222N117.880W7.54 13 km ( 8 mi) ESE of Olancha, CA
map2.02021/07/20 14:35:3638.525N119.467W0.9 31 km (19 mi) SSW of Smith Valley, NV
map1.02021/07/20 14:22:4538.817N122.818W2.44 7 km ( 4 mi) NW of The Geysers, CA
map1.02021/07/20 14:19:0038.470N119.527W5.6 38 km (24 mi) SSW of Smith Valley, NV
map1.22021/07/20 14:13:1835.983N117.317W4.79 25 km (16 mi) NNE of Trona, CA
map1.22021/07/20 14:08:3438.169N118.005W1.2 67 km (42 mi) SE of Hawthorne, NV
map0.72021/07/20 13:52:1938.812N122.815W3.1 6 km ( 4 mi) NW of The Geysers, CA
map1.52021/07/20 13:33:2238.166N117.992W1.0 68 km (42 mi) W of Tonopah, NV
map0.82021/07/20 13:14:2738.811N122.796W3.63 5 km ( 3 mi) NW of The Geysers, CA
map0.92021/07/20 13:13:4434.035N116.318W9.65 11 km ( 7 mi) S of Joshua Tree, CA
map1.82021/07/20 13:06:3939.063N118.385W9.1 57 km (35 mi) SE of Fallon, NV
map1.32021/07/20 13:05:5334.295N116.984W7.46 9 km ( 5 mi) NW of Big Bear Lake, CA
map1.72021/07/20 12:50:4438.500N119.533W2.44 36 km (22 mi) SSW of Smith Valley, NV
map2.12021/07/20 12:50:2838.501N119.507W6.47 35 km (21 mi) SSW of Smith Valley, NV
map0.22021/07/20 12:34:5438.825N122.767W2.25 4 km ( 2 mi) W of Cobb, CA
map0.92021/07/20 12:32:5438.564N122.655W-0.27 37 km (23 mi) SW of Quarry near Knoxville, CA (Probable quarry explosion)
map2.22021/07/20 12:16:5633.098N115.602W9.48 7 km ( 4 mi) NNE of Westmorland, CA
map0.82021/07/20 12:13:2735.953N117.669W3.04 22 km (13 mi) E of Little Lake, CA
map0.62021/07/20 12:04:5038.143N117.904W15.0 59 km (37 mi) W of Tonopah, NV
map0.82021/07/20 11:57:5933.999N117.194W11.75 6 km ( 4 mi) S of Redlands, CA
map1.32021/07/20 11:56:3836.818N117.525W6.1 41 km (26 mi) NW of Stovepipe Wells, CA
map1.02021/07/20 11:49:1835.645N117.423W5.8 14 km ( 9 mi) S of Searles Valley, CA
map0.32021/07/20 11:38:1333.637N116.710W15.74 10 km ( 6 mi) NNW of Anza, CA
map1.12021/07/20 11:33:2733.735N116.850W17.39 4 km ( 3 mi) ESE of Valle Vista, CA
map0.62021/07/20 11:27:0436.080N117.853W3.01 9 km ( 6 mi) ENE of Coso Junction, CA
map1.52021/07/20 11:26:1433.099N115.586W10.36 7 km ( 5 mi) WSW of Calipatria, CA
map1.52021/07/20 11:26:0733.096N115.594W10.29 7 km ( 4 mi) NNE of Westmorland, CA
map1.72021/07/20 11:15:1633.061N115.011W-0.25 1 km ( 1 mi) W of Quarry at RUN (Probable quarry explosion)
map1.22021/07/20 11:06:1238.758N122.719W2.01 4 km ( 2 mi) SE of The Geysers, CA
map1.72021/07/20 10:56:5133.095N115.600W10.04 7 km ( 4 mi) NNE of Westmorland, CA
map0.42021/07/20 10:53:5438.836N122.812W1.87 8 km ( 5 mi) WNW of Cobb, CA
map1.62021/07/20 10:42:5138.044N118.740W1.55 50 km (31 mi) NNE of Mammoth Lakes, CA
map-0.12021/07/20 10:36:0035.633N117.517W11.36 14 km ( 9 mi) E of Ridgecrest, CA
map2.22021/07/20 10:27:3538.551N119.512W6.23 30 km (18 mi) SSW of Smith Valley, NV
map1.32021/07/20 10:27:3533.994N117.170W17.83 7 km ( 4 mi) S of Redlands, CA
map1.22021/07/20 10:26:5838.533N119.532W5.9 32 km (20 mi) SSW of Smith Valley, NV
map0.32021/07/20 10:24:1236.044N117.875W2.76 7 km ( 4 mi) E of Coso Junction, CA
map0.82021/07/20 10:16:3233.721N116.756W15.84 4 km ( 2 mi) WSW of Idyllwild, CA
map0.92021/07/20 10:06:1233.472N116.487W12.61 20 km (12 mi) ESE of Anza, CA
map0.72021/07/20 10:06:1033.472N116.485W13.17 20 km (12 mi) ESE of Anza, CA
map2.72021/07/20 10:01:2336.220N117.872W4.98 14 km ( 9 mi) ESE of Olancha, CA
map1.02021/07/20 09:56:0638.813N122.815W3 6 km ( 4 mi) NW of The Geysers, CA
map0.62021/07/20 09:47:1138.813N122.819W2.73 7 km ( 4 mi) NW of The Geysers, CA
map1.12021/07/20 09:39:0638.564N119.438W0.0 26 km (16 mi) SSW of Smith Valley, NV
map1.62021/07/20 09:20:2238.527N119.497W6.6 32 km (20 mi) SSW of Smith Valley, NV
map0.32021/07/20 09:10:1235.702N117.532W3.88 14 km ( 9 mi) WSW of Searles Valley, CA
map-0.12021/07/20 09:09:5335.909N117.688W4.76 20 km (12 mi) E of Little Lake, CA
map1.12021/07/20 09:06:5938.583N122.497W-0.39 4 km ( 3 mi) W of Angwin, CA
map0.72021/07/20 08:52:5233.337N116.206W9.76 17 km (11 mi) SW of Oasis, CA
map0.42021/07/20 08:45:1233.500N116.495W14.43 18 km (11 mi) ESE of Anza, CA
map0.52021/07/20 08:38:0435.950N117.740W9.01 15 km ( 9 mi) E of Little Lake, CA
map0.52021/07/20 08:19:0038.799N122.757W3.67 2 km ( 1 mi) N of The Geysers, CA
map0.92021/07/20 08:15:4333.783N116.132W6.83 10 km ( 6 mi) NE of Indio, CA
map1.72021/07/20 08:09:5438.401N118.385W4.3 25 km (15 mi) SE of Hawthorne, NV
map0.52021/07/20 08:05:1538.549N119.436W5.6 27 km (17 mi) SSW of Smith Valley, NV
map0.42021/07/20 08:04:5738.145N117.903W7.3 59 km (37 mi) W of Tonopah, NV
map0.72021/07/20 07:49:2533.603N116.810W5.69 14 km ( 9 mi) WNW of Anza, CA
map0.52021/07/20 07:43:5335.812N117.790W6.77 17 km (11 mi) SE of Little Lake, CA
map0.32021/07/20 07:35:3233.670N116.694W15.94 8 km ( 5 mi) SSE of Idyllwild, CA
map0.62021/07/20 07:24:5033.763N116.918W14.02 3 km ( 2 mi) NW of Valle Vista, CA
map1.12021/07/20 07:14:5133.187N115.603W2.47 10 km ( 6 mi) SW of Niland, CA
map-0.12021/07/20 07:08:0535.646N117.605W8.88 7 km ( 4 mi) ENE of Ridgecrest, CA
map0.92021/07/20 07:05:1838.819N122.761W1.75 3 km ( 2 mi) W of Cobb, CA
map1.32021/07/20 06:53:5033.191N115.594W2.03 9 km ( 5 mi) SW of Niland, CA
map1.12021/07/20 06:53:3938.535N119.618W15.6 37 km (23 mi) SW of Smith Valley, NV
map2.72021/07/20 06:49:1033.161N115.695W0.79 15 km (10 mi) NNW of Westmorland, CA
map1.62021/07/20 06:49:0033.185N115.603W2.66 10 km ( 6 mi) SW of Niland, CA
map1.32021/07/20 06:48:2433.037N115.899W7.54 25 km (15 mi) ESE of Ocotillo Wells, CA
map1.02021/07/20 06:40:3834.278N116.806W6.81 4 km ( 3 mi) ENE of Big Bear City, CA
map0.42021/07/20 06:38:4835.881N117.677W7.8 22 km (13 mi) ESE of Little Lake, CA
map2.12021/07/20 06:19:5939.035N119.123W0.1 6 km ( 4 mi) NNE of Yerington, NV
map0.72021/07/20 06:13:0833.641N116.716W16.41 10 km ( 6 mi) NNW of Anza, CA
map1.12021/07/20 06:13:0738.509N119.521W3.8 34 km (21 mi) SSW of Smith Valley, NV
map2.02021/07/20 05:54:1938.821N122.762W1.76 3 km ( 2 mi) W of Cobb, CA
map0.62021/07/20 05:52:1533.043N116.426W9.74 17 km (11 mi) ESE of Julian, CA
map1.52021/07/20 05:41:3837.343N118.381W8.64 3 km ( 2 mi) SSE of Bishop, CA
map1.22021/07/20 05:25:5738.543N119.555W7.8 32 km (20 mi) SW of Smith Valley, NV
map1.32021/07/20 05:16:0638.181N117.809W8.9 52 km (32 mi) WNW of Tonopah, NV
map0.82021/07/20 04:45:5638.785N122.737W1.91 2 km ( 1 mi) ENE of The Geysers, CA
map1.42021/07/20 04:44:2038.539N119.438W1.5 28 km (18 mi) SSW of Smith Valley, NV
map1.42021/07/20 04:40:5433.037N115.597W9.77 2 km ( 1 mi) E of Westmorland, CA
map0.22021/07/20 04:38:1233.533N116.733W3.26 6 km ( 4 mi) WSW of Anza, CA
map0.72021/07/20 03:59:1138.556N119.510W7.6 29 km (18 mi) SSW of Smith Valley, NV
map1.32021/07/20 03:40:2437.995N122.253W9.27 4 km ( 2 mi) SE of Hercules, CA
map1.22021/07/20 03:39:0038.554N119.542W4.2 31 km (19 mi) SW of Smith Valley, NV
map0.92021/07/20 03:35:4635.982N117.324W2.24 25 km (15 mi) NNE of Trona, CA
map0.22021/07/20 03:24:5938.421N119.543W2.0 44 km (27 mi) SSW of Smith Valley, NV
map1.22021/07/20 03:22:2437.996N122.254W8.62 4 km ( 2 mi) SE of Hercules, CA
map0.52021/07/20 03:21:4138.825N122.802W3.37 7 km ( 4 mi) NW of The Geysers, CA
map-0.02021/07/20 03:19:4233.498N116.424W8.95 21 km (13 mi) SSW of La Quinta, CA
map0.42021/07/20 03:19:2433.998N116.787W9.54 9 km ( 6 mi) N of Cabazon, CA
map1.62021/07/20 03:19:1838.554N119.532W1.7 30 km (19 mi) SSW of Smith Valley, NV
map1.42021/07/20 03:09:5338.483N119.402W0.0 34 km (21 mi) S of Smith Valley, NV
map1.32021/07/20 03:07:5735.844N117.660W11.45 24 km (15 mi) ESE of Little Lake, CA
map1.72021/07/20 03:07:1638.207N117.790W0.0 51 km (32 mi) WNW of Tonopah, NV
map1.02021/07/20 03:03:2235.848N117.659W11.72 24 km (15 mi) ESE of Little Lake, CA
map1.12021/07/20 03:01:4538.485N119.500W8.3 36 km (22 mi) SSW of Smith Valley, NV
map0.92021/07/20 02:59:3338.836N122.792W1.93 6 km ( 4 mi) WNW of Cobb, CA
map0.82021/07/20 02:51:2638.828N122.799W2.07 7 km ( 4 mi) W of Cobb, CA
map0.62021/07/20 02:38:1233.647N116.712W16.97 10 km ( 6 mi) S of Idyllwild, CA
map0.42021/07/20 02:07:1633.828N117.650W6.1 9 km ( 6 mi) WSW of Corona, CA
map2.42021/07/20 01:55:4335.676N117.543W8.44 13 km ( 8 mi) ENE of Ridgecrest, CA
map1.72021/07/20 01:45:5438.828N122.796W2.21 6 km ( 4 mi) W of Cobb, CA
map1.02021/07/20 01:42:1835.946N117.691W3.94 19 km (12 mi) E of Little Lake, CA
map1.02021/07/20 01:31:4432.741N115.818W3.82 16 km (10 mi) E of Ocotillo, CA
map0.92021/07/20 01:31:1935.943N117.691W3.83 19 km (12 mi) E of Little Lake, CA
map1.02021/07/20 01:21:4138.548N119.519W9.3 30 km (19 mi) SSW of Smith Valley, NV
map0.92021/07/20 01:15:3138.177N117.868W11.5 57 km (35 mi) WNW of Tonopah, NV
map1.82021/07/20 01:14:2036.818N117.447W0.0 36 km (22 mi) NW of Stovepipe Wells, CA
map0.32021/07/20 01:10:4638.510N119.530W9.7 34 km (21 mi) SSW of Smith Valley, NV
map1.02021/07/20 00:58:4333.984N117.229W14.02 6 km ( 4 mi) N of Moreno Valley, CA
map2.02021/07/20 00:55:5838.555N119.499W5.28 29 km (18 mi) SSW of Smith Valley, NV
map0.92021/07/20 00:45:0138.111N117.788W13.7 49 km (30 mi) W of Tonopah, NV
map2.12021/07/20 00:28:4138.203N117.790W2.9 51 km (32 mi) WNW of Tonopah, NV
map0.82021/07/20 00:14:0738.551N119.520W8.5 30 km (19 mi) SSW of Smith Valley, NV
map0.82021/07/20 00:13:1938.528N119.492W6.4 31 km (19 mi) SSW of Smith Valley, NV
map1.92021/07/19 23:51:4235.913N117.713W3.62 18 km (11 mi) E of Little Lake, CA
map0.72021/07/19 23:33:2235.898N117.706W9.17 19 km (12 mi) ESE of Little Lake, CA
map0.82021/07/19 23:26:2638.558N119.532W9.0 30 km (19 mi) SSW of Smith Valley, NV
map0.72021/07/19 23:26:2535.778N120.360W5.25 8 km ( 5 mi) NW of Cholame, CA
map1.12021/07/19 23:23:1334.031N117.231W15.49 3 km ( 2 mi) SE of Loma Linda, CA
map0.82021/07/19 23:18:3936.036N117.809W1.57 13 km ( 8 mi) E of Coso Junction, CA
map2.42021/07/19 23:16:4935.772N120.326W8.06 6 km ( 4 mi) NNW of Cholame, CA
map0.62021/07/19 22:56:1433.251N116.776W7.94 2 km ( 1 mi) NW of Lake Henshaw, CA
map1.42021/07/19 22:54:0438.521N119.486W2.8 32 km (20 mi) SSW of Smith Valley, NV
map0.92021/07/19 22:41:2238.556N119.508W7.6 29 km (18 mi) SSW of Smith Valley, NV
map1.32021/07/19 22:38:1838.528N119.443W4.5 30 km (18 mi) SSW of Smith Valley, NV
map0.92021/07/19 22:30:1638.508N119.527W7.1 35 km (21 mi) SSW of Smith Valley, NV
map2.82021/07/19 22:12:5036.840N117.428W1.31 36 km (23 mi) NW of Stovepipe Wells, CA
map1.12021/07/19 22:12:3038.558N119.499W8.2 28 km (18 mi) SSW of Smith Valley, NV
map1.02021/07/19 22:11:3738.561N119.497W8.1 28 km (17 mi) SSW of Smith Valley, NV
map0.62021/07/19 21:45:5235.898N117.422W3.51 15 km ( 9 mi) N of Searles Valley, CA
map2.92021/07/19 21:30:3240.807N119.350W3.1102 km (63 mi) NW of Lovelock, NV
map0.42021/07/19 21:09:2938.838N122.836W1.77 10 km ( 6 mi) NW of The Geysers, CA
map1.12021/07/19 21:02:0238.837N122.800W2.06 7 km ( 4 mi) WNW of Cobb, CA
map2.02021/07/19 20:54:1635.977N117.340W2.73 24 km (15 mi) N of Trona, CA
map1.02021/07/19 20:44:4438.126N118.034W3.0 68 km (42 mi) SE of Hawthorne, NV
map0.92021/07/19 20:19:0335.481N119.986W10.56 14 km ( 9 mi) N of Simmler, CA
map0.42021/07/19 20:16:2333.699N116.746W13.61 5 km ( 3 mi) SSW of Idyllwild, CA
map1.72021/07/19 20:03:2433.838N117.765W8.38 5 km ( 3 mi) ENE of Villa Park, CA
map-0.32021/07/19 20:02:2638.492N119.504W5.8 35 km (22 mi) SSW of Smith Valley, NV
map0.92021/07/19 20:02:0738.163N118.183W2.8 56 km (35 mi) SE of Hawthorne, NV
map0.72021/07/19 19:55:4935.795N117.621W7.07 20 km (12 mi) W of Searles Valley, CA
map1.42021/07/19 19:48:3038.126N118.033W2.9 68 km (42 mi) SE of Hawthorne, NV
map0.72021/07/19 19:36:0733.642N116.726W14.28 11 km ( 7 mi) NNW of Anza, CA
map1.42021/07/19 19:35:4233.252N116.781W7.43 2 km ( 1 mi) NW of Lake Henshaw, CA
map1.32021/07/19 19:34:2832.458N116.270W20.96 25 km (15 mi) SE of Campo, CA
map1.62021/07/19 19:16:3738.493N119.506W4.49 35 km (22 mi) SSW of Smith Valley, NV
map1.52021/07/19 18:56:1032.764N115.833W5.13 15 km (10 mi) ENE of Ocotillo, CA
map0.92021/07/19 18:35:3535.796N117.621W7.01 20 km (12 mi) W of Searles Valley, CA
map0.92021/07/19 18:17:5238.158N117.889W11.7 58 km (36 mi) W of Tonopah, NV
map0.62021/07/19 18:04:5433.495N116.930W6.64 8 km ( 5 mi) NW of Aguanga, CA
map0.52021/07/19 18:02:3433.508N116.563W12.97 12 km ( 7 mi) ESE of Anza, CA
map0.92021/07/19 17:55:5738.410N119.571W5.4 46 km (29 mi) SSW of Smith Valley, NV
map0.92021/07/19 17:47:4238.537N119.452W3.6 29 km (18 mi) SSW of Smith Valley, NV
map0.72021/07/19 17:47:3038.833N122.806W2.28 7 km ( 5 mi) W of Cobb, CA
map1.32021/07/19 17:36:3633.042N115.600W9.65 2 km ( 1 mi) ENE of Westmorland, CA
map0.62021/07/19 17:36:2533.041N115.591W9.57 3 km ( 2 mi) E of Westmorland, CA
map0.42021/07/19 17:33:1338.827N122.855W2.63 10 km ( 6 mi) WNW of The Geysers, CA
map1.62021/07/19 17:32:0433.042N115.598W9.14 2 km ( 1 mi) ENE of Westmorland, CA
map2.22021/07/19 17:28:3133.044N115.598W9.39 2 km ( 1 mi) ENE of Westmorland, CA
map0.82021/07/19 17:28:2333.517N116.574W13.89 10 km ( 6 mi) ESE of Anza, CA
map1.72021/07/19 17:26:4938.169N117.959W4.9 65 km (40 mi) W of Tonopah, NV
map1.32021/07/19 17:24:2838.177N117.799W9.4 51 km (32 mi) WNW of Tonopah, NV
map0.82021/07/19 17:20:4433.733N116.853W2.54 4 km ( 3 mi) ESE of Valle Vista, CA
map1.32021/07/19 17:06:0837.885N118.552W4.4 47 km (29 mi) NE of Mammoth Lakes, CA
map1.02021/07/19 17:03:0638.518N119.464W2.3 31 km (20 mi) SSW of Smith Valley, NV
map0.82021/07/19 16:49:5136.041N117.872W1.95 7 km ( 4 mi) E of Coso Junction, CA
map0.92021/07/19 16:31:5232.740N115.816W10.34 17 km (10 mi) E of Ocotillo, CA
map2.12021/07/19 16:04:1638.212N117.741W5.2 47 km (29 mi) WNW of Tonopah, NV
map0.32021/07/19 15:55:4935.873N117.671W8.25 22 km (14 mi) ESE of Little Lake, CA
map1.22021/07/19 15:50:3735.607N117.478W6.96 18 km (11 mi) E of Ridgecrest, CA
map1.32021/07/19 15:46:2638.486N119.541W5.0 37 km (23 mi) SSW of Smith Valley, NV
map0.82021/07/19 15:32:1538.820N122.807W2.5 6 km ( 4 mi) NW of The Geysers, CA
map1.02021/07/19 15:11:0338.509N119.521W6.45 34 km (21 mi) SSW of Smith Valley, NV
map1.22021/07/19 14:53:2135.882N117.715W3.98 18 km (11 mi) ESE of Little Lake, CA
map1.52021/07/19 14:43:1638.459N122.640W9.26 6 km ( 4 mi) E of Santa Rosa, CA
map1.52021/07/19 14:39:4432.748N115.819W6.88 16 km (10 mi) E of Ocotillo, CA
map0.72021/07/19 14:00:2438.761N122.732W1.07 3 km ( 2 mi) SE of The Geysers, CA
map0.72021/07/19 13:49:5333.765N117.082W6.46 3 km ( 2 mi) N of Green Acres, CA
map0.82021/07/19 13:41:4533.509N116.560W13.14 12 km ( 7 mi) ESE of Anza, CA
map1.22021/07/19 13:39:0235.865N117.673W10 23 km (14 mi) ESE of Little Lake, CA
map0.42021/07/19 13:37:3038.825N122.802W2.5 7 km ( 4 mi) NW of The Geysers, CA
map1.82021/07/19 13:23:1638.452N119.499W3.46 39 km (24 mi) SSW of Smith Valley, NV
map0.72021/07/19 13:16:4738.778N122.757W1.06 0 km ( 0 mi) NW of The Geysers, CA
map1.62021/07/19 13:11:5934.047N116.909W17.73 12 km ( 8 mi) E of Yucaipa, CA
map1.82021/07/19 13:07:0838.460N119.474W4.74 38 km (23 mi) SSW of Smith Valley, NV
map1.82021/07/19 13:02:3238.468N119.475W5.57 37 km (23 mi) SSW of Smith Valley, NV
map1.12021/07/19 13:01:5338.463N119.475W4.96 38 km (23 mi) SSW of Smith Valley, NV
MAP3.02021/07/19 12:58:1038.462N119.476W5.47 38 km (23 mi) SSW of Smith Valley, NV
map0.52021/07/19 12:29:5335.876N117.728W7.38 17 km (11 mi) ESE of Little Lake, CA
map2.32021/07/19 12:27:2038.166N117.966W1.3 65 km (41 mi) W of Tonopah, NV
map1.02021/07/19 12:23:1437.401N118.695W7.02 22 km (13 mi) WNW of West Bishop, CA
map1.82021/07/19 12:15:5138.499N119.418W0.24 32 km (20 mi) S of Smith Valley, NV
map0.52021/07/19 12:10:5233.723N116.746W16.79 3 km ( 2 mi) SW of Idyllwild, CA
map1.12021/07/19 12:10:3835.061N118.337W-0.94 2 km ( 1 mi) NW of Quarry at MOJAVE (Probable quarry explosion)
map1.32021/07/19 12:04:1338.532N119.495W5.41 31 km (19 mi) SSW of Smith Valley, NV
map0.42021/07/19 12:00:5038.827N122.855W2.07 10 km ( 6 mi) WNW of The Geysers, CA
map0.92021/07/19 11:50:1638.836N122.807W2.48 7 km ( 5 mi) WNW of Cobb, CA
map-0.12021/07/19 11:25:1038.503N119.459W4.9 33 km (20 mi) SSW of Smith Valley, NV
map0.92021/07/19 11:12:4435.808N117.641W1.72 21 km (13 mi) N of Ridgecrest, CA
map1.02021/07/19 11:04:0038.468N119.485W7.65 37 km (23 mi) SSW of Smith Valley, NV
map1.22021/07/19 11:03:1638.528N119.468W0.7 30 km (19 mi) SSW of Smith Valley, NV
map0.22021/07/19 10:44:4438.835N122.790W1.98 6 km ( 4 mi) WNW of Cobb, CA
map1.82021/07/19 10:44:4134.620N116.296W3.85 17 km (10 mi) SW of Ludlow, CA
map1.32021/07/19 10:40:0939.002N123.271W6.42 8 km ( 5 mi) E of Boonville, CA
map1.22021/07/19 10:31:4934.338N116.837W-0.34 9 km ( 5 mi) N of Big Bear City, CA
map1.72021/07/19 10:27:2134.642N119.005W12.37 21 km (13 mi) SSW of Frazier Park, CA
map0.52021/07/19 10:23:2833.939N117.059W2.82 5 km ( 3 mi) S of Calimesa, CA
map1.42021/07/19 09:38:1538.220N119.758W3.0 46 km (29 mi) ENE of Twain Harte, CA
map1.62021/07/19 09:33:4741.144N122.044W6.89 15 km ( 9 mi) SSE of McCloud, CA
map0.82021/07/19 09:26:4732.750N115.817W6.9 17 km (10 mi) E of Ocotillo, CA
map0.52021/07/19 09:13:0538.550N119.443W-0.05 27 km (17 mi) SSW of Smith Valley, NV
map0.52021/07/19 08:54:4733.366N116.392W5.06 12 km ( 8 mi) N of Borrego Springs, CA
map1.82021/07/19 08:47:5538.607N118.550W0.0 11 km ( 7 mi) NE of Hawthorne, NV
map0.82021/07/19 08:40:4838.807N122.813W3.24 6 km ( 4 mi) NW of The Geysers, CA
map1.22021/07/19 08:30:0538.553N119.463W4.8 28 km (17 mi) SSW of Smith Valley, NV
map1.42021/07/19 07:58:1237.959N122.093W11.7 3 km ( 2 mi) SSW of Pacheco, CA
map0.42021/07/19 07:53:2438.839N122.819W0.78 9 km ( 5 mi) WNW of Cobb, CA
map1.12021/07/19 07:28:1036.431N117.912W6.29 19 km (12 mi) NNE of Olancha, CA
map1.62021/07/19 07:22:0738.535N122.648W4.38 8 km ( 5 mi) SW of Calistoga, CA
map1.22021/07/19 07:13:3438.826N122.762W0.59 3 km ( 2 mi) W of Cobb, CA
map0.02021/07/19 07:07:1636.034N117.802W1.74 13 km ( 8 mi) E of Coso Junction, CA
map0.72021/07/19 07:03:4735.968N120.531W10.14 12 km ( 7 mi) NW of Parkfield, CA
map0.32021/07/19 06:32:1235.912N117.671W8.81 21 km (13 mi) E of Little Lake, CA
map0.62021/07/19 06:29:3038.509N119.485W6.9 33 km (20 mi) SSW of Smith Valley, NV
map2.12021/07/19 06:29:2635.706N117.553W3.59 15 km ( 9 mi) NE of Ridgecrest, CA
map0.82021/07/19 06:29:1138.826N122.800W3.51 7 km ( 4 mi) NW of The Geysers, CA
map2.22021/07/19 06:10:3839.147N117.360W12.2 46 km (29 mi) SSW of Austin, NV
map1.32021/07/19 06:06:2038.481N119.433W7.1 35 km (22 mi) SSW of Smith Valley, NV
map0.42021/07/19 05:53:5938.495N119.517W3.05 36 km (22 mi) SSW of Smith Valley, NV
map0.62021/07/19 05:51:0134.898N119.112W4.86 7 km ( 4 mi) NNE of Pine Mountain Club, CA
map1.22021/07/19 05:19:1934.516N119.085W17.34 16 km (10 mi) ENE of Ojai, CA
map0.62021/07/19 05:18:2833.592N116.807W6.67 13 km ( 8 mi) WNW of Anza, CA
map0.42021/07/19 05:11:0538.824N122.844W1.85 9 km ( 6 mi) NW of The Geysers, CA
map1.52021/07/19 04:55:4333.252N116.781W7.23 2 km ( 1 mi) NW of Lake Henshaw, CA
map0.72021/07/19 04:54:3038.835N122.809W2.29 8 km ( 5 mi) W of Cobb, CA
map1.22021/07/19 04:43:3338.008N118.736W4.86 46 km (29 mi) NNE of Mammoth Lakes, CA
map1.32021/07/19 04:37:5438.825N122.804W2.28 7 km ( 4 mi) NW of The Geysers, CA
map1.52021/07/19 04:28:2135.671N117.474W4.79 12 km ( 8 mi) SSW of Searles Valley, CA
map1.22021/07/19 04:26:2638.825N122.803W2.41 7 km ( 4 mi) NW of The Geysers, CA
map0.52021/07/19 04:13:2938.503N119.530W4.0 35 km (22 mi) SSW of Smith Valley, NV
map1.52021/07/19 04:00:2832.748N115.814W9.05 17 km (10 mi) E of Ocotillo, CA
map0.82021/07/19 03:56:0538.551N119.456W1.2 28 km (17 mi) SSW of Smith Valley, NV
map0.32021/07/19 03:50:3738.527N119.504W6.7 32 km (20 mi) SSW of Smith Valley, NV
map1.02021/07/19 03:49:5838.563N119.454W2.26 26 km (16 mi) SSW of Smith Valley, NV
map0.52021/07/19 03:35:0638.566N119.452W1.3 26 km (16 mi) SSW of Smith Valley, NV
map1.22021/07/19 03:32:0339.256N120.425W0.0 22 km (14 mi) WSW of Truckee, CA
map0.82021/07/19 03:30:3338.520N119.533W7.0 34 km (21 mi) SSW of Smith Valley, NV
map0.92021/07/19 03:29:3938.840N122.823W1.39 9 km ( 6 mi) WNW of Cobb, CA
map2.92021/07/19 03:26:4538.524N119.499W2.74 32 km (20 mi) SSW of Smith Valley, NV
map0.82021/07/19 03:02:1338.523N119.542W7.7 34 km (21 mi) SSW of Smith Valley, NV
map1.72021/07/19 02:57:5138.513N119.478W5.8 32 km (20 mi) SSW of Smith Valley, NV
map1.92021/07/19 02:56:5738.559N119.512W5.54 29 km (18 mi) SSW of Smith Valley, NV
map0.52021/07/19 02:56:2738.545N119.454W1.7 28 km (18 mi) SSW of Smith Valley, NV
map1.12021/07/19 02:53:5836.137N117.926W5.57 10 km ( 6 mi) N of Coso Junction, CA
map0.92021/07/19 02:52:2238.549N119.455W1.7 28 km (17 mi) SSW of Smith Valley, NV
map1.02021/07/19 02:43:0938.517N119.521W8.3 33 km (21 mi) SSW of Smith Valley, NV
map0.72021/07/19 02:42:5435.858N117.684W6.82 22 km (14 mi) ESE of Little Lake, CA
map0.72021/07/19 02:42:1838.836N122.808W1.79 8 km ( 5 mi) WNW of Cobb, CA
map0.72021/07/19 02:29:2438.556N119.448W0.3 27 km (17 mi) SSW of Smith Valley, NV
map1.22021/07/19 02:20:4438.171N117.815W1.5 52 km (33 mi) WNW of Tonopah, NV
map0.92021/07/19 02:16:2638.542N119.556W6.6 33 km (20 mi) SW of Smith Valley, NV
map1.22021/07/19 02:10:5238.831N122.818W1.75 8 km ( 5 mi) NW of The Geysers, CA
map1.82021/07/19 02:09:1239.213N117.775W13.0 68 km (42 mi) WSW of Austin, NV
map0.82021/07/19 02:06:1538.148N118.003W6.1 68 km (42 mi) W of Tonopah, NV
map1.12021/07/19 02:04:4538.574N119.477W9.3 26 km (16 mi) SSW of Smith Valley, NV
map1.22021/07/19 02:03:1838.517N119.502W8.6 33 km (20 mi) SSW of Smith Valley, NV
map0.82021/07/19 01:41:2838.521N119.497W8.5 32 km (20 mi) SSW of Smith Valley, NV
map2.22021/07/19 01:33:0038.481N119.586W0.26 40 km (25 mi) SSW of Smith Valley, NV
map1.72021/07/19 01:33:0038.483N119.586W-1.85 40 km (25 mi) SSW of Smith Valley, NV
map1.02021/07/19 01:27:5738.556N119.450W1.2 27 km (17 mi) SSW of Smith Valley, NV
map0.72021/07/19 01:26:0438.529N119.489W6.6 31 km (19 mi) SSW of Smith Valley, NV
map1.52021/07/19 01:23:1538.548N119.443W2.0 28 km (17 mi) SSW of Smith Valley, NV
map0.62021/07/19 01:17:1833.666N116.697W15.16 8 km ( 5 mi) SSE of Idyllwild, CA
map1.52021/07/19 01:15:0338.518N119.500W7.6 33 km (20 mi) SSW of Smith Valley, NV
map1.12021/07/19 01:09:4833.473N116.504W6.23 18 km (11 mi) ESE of Anza, CA
map0.32021/07/19 01:06:0138.569N119.453W1.6 26 km (16 mi) SSW of Smith Valley, NV
map0.62021/07/19 00:56:2633.439N116.350W15.59 21 km (13 mi) N of Borrego Springs, CA
map0.92021/07/19 00:54:1934.119N117.593W10.11 1 km ( 1 mi) WSW of Rancho Cucamonga, CA
map1.02021/07/19 00:51:0538.526N119.492W11.8 31 km (20 mi) SSW of Smith Valley, NV
map0.82021/07/19 00:40:1438.531N119.478W9.8 30 km (19 mi) SSW of Smith Valley, NV
map1.52021/07/19 00:38:4236.576N121.110W10.52 26 km (16 mi) NE of Soledad, CA
map1.02021/07/19 00:38:1538.531N119.507W10.6 32 km (20 mi) SSW of Smith Valley, NV
map0.52021/07/19 00:30:4433.332N116.168W9.83 16 km (10 mi) SSW of Oasis, CA
map0.92021/07/19 00:29:0538.519N119.484W4.89 32 km (20 mi) SSW of Smith Valley, NV
map0.92021/07/19 00:27:3538.833N122.793W1.52 6 km ( 4 mi) WNW of Cobb, CA
map0.52021/07/19 00:20:2138.776N122.712W2.09 4 km ( 2 mi) E of The Geysers, CA
map1.02021/07/19 00:15:1133.380N116.387W11.88 14 km ( 9 mi) N of Borrego Springs, CA
map0.82021/07/19 00:13:1037.147N117.116W10.3 42 km (26 mi) NW of Beatty, NV
map0.72021/07/19 00:06:5238.555N119.455W2.25 27 km (17 mi) SSW of Smith Valley, NV
map0.82021/07/18 23:58:0738.826N122.854W2.29 10 km ( 6 mi) WNW of The Geysers, CA
map0.92021/07/18 23:53:3638.544N119.529W5.9 31 km (19 mi) SSW of Smith Valley, NV
map1.72021/07/18 23:49:0338.499N119.542W3.49 36 km (22 mi) SSW of Smith Valley, NV
map2.12021/07/18 23:43:3338.516N119.503W5.45 33 km (20 mi) SSW of Smith Valley, NV
map0.82021/07/18 23:43:0438.541N119.465W2.2 29 km (18 mi) SSW of Smith Valley, NV
map1.12021/07/18 23:38:5238.540N119.468W1.6 29 km (18 mi) SSW of Smith Valley, NV
map2.02021/07/18 23:35:5538.500N119.533W3.3 36 km (22 mi) SSW of Smith Valley, NV
map2.62021/07/18 23:34:1738.482N119.505W3.34 36 km (23 mi) SSW of Smith Valley, NV
map0.82021/07/18 23:29:1435.911N117.673W3.8 21 km (13 mi) E of Little Lake, CA
map2.42021/07/18 23:25:0638.403N119.571W3.1 47 km (29 mi) SSW of Smith Valley, NV
map1.12021/07/18 23:09:4338.507N119.509W7.6 34 km (21 mi) SSW of Smith Valley, NV
map1.02021/07/18 23:08:0832.909N116.340W7.01 20 km (13 mi) ENE of Pine Valley, CA
map1.02021/07/18 22:50:3437.144N117.145W10.3 43 km (27 mi) NW of Beatty, NV
map0.82021/07/18 22:43:2438.796N122.784W2.7 3 km ( 2 mi) NW of The Geysers, CA
map0.72021/07/18 22:39:4535.774N117.585W7.38 16 km (10 mi) W of Searles Valley, CA
map1.32021/07/18 22:39:2138.547N119.452W0.0 28 km (17 mi) SSW of Smith Valley, NV
map0.72021/07/18 22:36:4833.455N116.463W10.81 23 km (14 mi) ESE of Anza, CA
map0.72021/07/18 22:33:3338.482N119.498W10.5 36 km (22 mi) SSW of Smith Valley, NV
map0.22021/07/18 22:24:2433.656N116.707W16.18 9 km ( 6 mi) S of Idyllwild, CA
map0.02021/07/18 22:24:2133.660N116.702W15.08 9 km ( 6 mi) S of Idyllwild, CA
map0.82021/07/18 22:13:4533.937N117.054W3.7 6 km ( 4 mi) S of Calimesa, CA
map1.42021/07/18 22:13:1532.646N115.936W8.48 11 km ( 7 mi) SSE of Ocotillo, CA
map1.52021/07/18 22:12:1438.562N122.290W6.09 14 km ( 9 mi) E of Angwin, CA
map1.02021/07/18 22:09:3137.924N118.572W0.0 48 km (30 mi) NE of Mammoth Lakes, CA
map0.62021/07/18 22:01:3538.795N122.786W3.52 3 km ( 2 mi) NW of The Geysers, CA
map0.82021/07/18 21:58:0638.489N119.527W4.6 36 km (23 mi) SSW of Smith Valley, NV
map0.62021/07/18 21:56:1733.599N116.808W6.26 13 km ( 8 mi) WNW of Anza, CA
map1.12021/07/18 21:53:3338.538N119.454W1.4 29 km (18 mi) SSW of Smith Valley, NV
map1.02021/07/18 21:53:0338.486N119.560W5.6 38 km (24 mi) SSW of Smith Valley, NV
map1.02021/07/18 21:49:1638.550N119.525W9.0 30 km (19 mi) SSW of Smith Valley, NV
map1.82021/07/18 21:37:1733.042N115.598W9.12 2 km ( 1 mi) ENE of Westmorland, CA
map1.72021/07/18 21:24:3838.548N122.313W-0.32 12 km ( 8 mi) ESE of Angwin, CA
map0.82021/07/18 21:20:0838.516N119.531W9.3 34 km (21 mi) SSW of Smith Valley, NV
map1.82021/07/18 21:16:3036.596N121.198W8.23 22 km (14 mi) NNE of Soledad, CA
map1.12021/07/18 21:14:5038.550N119.470W4.0 28 km (18 mi) SSW of Smith Valley, NV
map0.92021/07/18 21:10:0138.480N119.459W3.5 35 km (22 mi) SSW of Smith Valley, NV
map0.82021/07/18 21:02:1138.146N117.888W7.9 58 km (36 mi) W of Tonopah, NV
map0.02021/07/18 21:01:5138.529N119.533W5.7 33 km (20 mi) SSW of Smith Valley, NV
map1.02021/07/18 20:52:3538.548N119.515W3.5 30 km (19 mi) SSW of Smith Valley, NV
map0.42021/07/18 20:49:4038.832N122.802W1.55 7 km ( 4 mi) W of Cobb, CA
map1.02021/07/18 20:43:0732.975N116.426W11.43 20 km (12 mi) NNE of Pine Valley, CA
map1.62021/07/18 20:41:1837.489N117.734W16.0 60 km (37 mi) ENE of Bishop, CA
map0.22021/07/18 20:35:1833.611N116.800W7.99 13 km ( 8 mi) WNW of Anza, CA
map1.72021/07/18 20:35:1135.356N117.831W6.73 18 km (11 mi) W of Johannesburg, CA
map1.02021/07/18 20:31:1738.530N119.505W10.6 32 km (20 mi) SSW of Smith Valley, NV
map0.42021/07/18 20:18:4338.826N122.813W2.3 7 km ( 5 mi) NW of The Geysers, CA
map0.42021/07/18 20:18:3038.542N119.464W3.53 29 km (18 mi) SSW of Smith Valley, NV
map0.82021/07/18 20:13:5933.988N116.847W13.07 7 km ( 5 mi) NNE of Banning, CA
map0.82021/07/18 20:10:2333.508N116.445W6.82 21 km (13 mi) SW of La Quinta, CA
map2.12021/07/18 20:09:1738.464N119.468W4.99 37 km (23 mi) SSW of Smith Valley, NV
map2.22021/07/18 19:47:1938.402N119.571W3.54 47 km (29 mi) SSW of Smith Valley, NV
map0.62021/07/18 19:45:5438.546N119.537W6.8 31 km (19 mi) SSW of Smith Valley, NV
map2.32021/07/18 19:42:1638.552N119.459W1.9 28 km (17 mi) SSW of Smith Valley, NV
map0.72021/07/18 19:34:0433.514N116.327W11.66 17 km (10 mi) S of La Quinta, CA
map1.22021/07/18 19:25:2040.216N119.779W6.8 62 km (38 mi) NNE of Cold Springs, NV
map0.22021/07/18 19:16:0038.806N122.779W3.85 4 km ( 2 mi) NNW of The Geysers, CA
map0.92021/07/18 19:09:1338.417N119.569W0.0 45 km (28 mi) SSW of Smith Valley, NV
map1.12021/07/18 18:44:5638.415N119.562W0.0 45 km (28 mi) SSW of Smith Valley, NV
map1.92021/07/18 18:34:5038.404N119.569W1.97 47 km (29 mi) SSW of Smith Valley, NV
map0.72021/07/18 18:32:2138.503N119.513W8.3 35 km (21 mi) SSW of Smith Valley, NV
map1.12021/07/18 18:24:0237.146N117.144W0.7 43 km (27 mi) NW of Beatty, NV
map1.02021/07/18 18:20:2737.147N117.148W8.0 44 km (27 mi) NW of Beatty, NV
map1.22021/07/18 18:10:3632.764N115.831W5.3 15 km (10 mi) ENE of Ocotillo, CA
map1.22021/07/18 18:06:4736.307N120.849W10.71 27 km (17 mi) ENE of King City, CA
map0.92021/07/18 18:06:1338.839N122.838W1.26 10 km ( 6 mi) NW of The Geysers, CA
map1.62021/07/18 18:05:2435.775N117.585W6.69 16 km (10 mi) W of Searles Valley, CA
map1.42021/07/18 16:58:1238.508N119.493W6.9 33 km (21 mi) SSW of Smith Valley, NV
map0.62021/07/18 16:56:0433.400N116.394W11.59 16 km (10 mi) N of Borrego Springs, CA
map1.52021/07/18 16:43:3733.139N115.636W7.48 11 km ( 7 mi) N of Westmorland, CA
map0.52021/07/18 16:31:2435.283N117.420W10.5 22 km (14 mi) ESE of Johannesburg, CA
map1.42021/07/18 16:31:0133.847N117.675W8.17 10 km ( 6 mi) WSW of Corona, CA
map0.72021/07/18 16:25:1033.554N116.424W10.54 16 km (10 mi) SW of La Quinta, CA
map0.52021/07/18 16:19:3533.675N116.766W13.02 8 km ( 5 mi) SSW of Idyllwild, CA
map1.52021/07/18 16:15:4338.551N119.475W1.5 28 km (18 mi) SSW of Smith Valley, NV
map1.32021/07/18 15:56:4938.540N119.420W0.9 28 km (17 mi) SSW of Smith Valley, NV
map1.42021/07/18 15:52:2138.134N118.047W1.0 66 km (41 mi) SE of Hawthorne, NV
map-0.12021/07/18 15:30:4037.623N118.935W2.86 4 km ( 3 mi) ESE of Mammoth Lakes, CA
map1.22021/07/18 15:21:0933.164N116.015W10.02 11 km ( 7 mi) ENE of Ocotillo Wells, CA
map0.02021/07/18 15:20:5333.862N116.786W16.21 6 km ( 4 mi) S of Cabazon, CA
map0.22021/07/18 15:20:0037.608N118.824W4.46 14 km ( 9 mi) ESE of Mammoth Lakes, CA
map0.52021/07/18 14:51:0035.648N117.598W10.73 8 km ( 5 mi) ENE of Ridgecrest, CA
map0.32021/07/18 14:50:5035.868N117.692W9.84 21 km (13 mi) ESE of Little Lake, CA
map1.52021/07/18 14:50:3737.141N117.140W3.7 43 km (27 mi) NW of Beatty, NV
map0.52021/07/18 14:24:1236.017N117.810W1.83 12 km ( 8 mi) NE of Little Lake, CA
map0.32021/07/18 14:11:0837.542N118.833W0.28 17 km (10 mi) SE of Mammoth Lakes, CA
map1.02021/07/18 14:05:5138.526N119.494W6.55 31 km (20 mi) SSW of Smith Valley, NV
map1.52021/07/18 14:04:5735.111N119.222W23.39 17 km (11 mi) ENE of Maricopa, CA
map1.02021/07/18 14:01:1438.447N119.497W7.8 40 km (25 mi) SSW of Smith Valley, NV
map1.22021/07/18 13:39:5138.489N119.519W6.5 36 km (22 mi) SSW of Smith Valley, NV
map0.92021/07/18 13:37:3238.535N119.531W3.6 32 km (20 mi) SSW of Smith Valley, NV
map0.62021/07/18 13:26:1838.758N122.728W2.77 3 km ( 2 mi) SE of The Geysers, CA
map1.82021/07/18 13:17:4738.535N119.526W2.3 32 km (20 mi) SSW of Smith Valley, NV
map0.52021/07/18 13:14:1738.778N122.743W0.53 1 km ( 1 mi) E of The Geysers, CA
map0.12021/07/18 13:03:5338.544N119.436W5.95 28 km (17 mi) SSW of Smith Valley, NV
map0.62021/07/18 13:03:4238.549N119.455W2.39 28 km (17 mi) SSW of Smith Valley, NV
map0.42021/07/18 12:47:1538.552N119.490W4.7 29 km (18 mi) SSW of Smith Valley, NV
map0.82021/07/18 12:36:0134.052N117.275W16.97 1 km ( 1 mi) WNW of Loma Linda, CA
map0.52021/07/18 12:31:3033.673N116.765W15.36 9 km ( 5 mi) SSW of Idyllwild, CA
map0.52021/07/18 12:25:3433.634N116.686W13.17 9 km ( 5 mi) N of Anza, CA
map1.32021/07/18 12:20:1638.544N119.504W10.7 30 km (19 mi) SSW of Smith Valley, NV
map0.62021/07/18 12:07:3438.801N122.774W1.28 3 km ( 2 mi) NNW of The Geysers, CA
map2.32021/07/18 12:01:3536.344N117.968W1.24 8 km ( 5 mi) NNE of Olancha, CA
map1.52021/07/18 11:59:2138.492N119.537W2.7 37 km (23 mi) SSW of Smith Valley, NV
map0.52021/07/18 11:56:4338.520N119.506W4.98 33 km (20 mi) SSW of Smith Valley, NV
map0.72021/07/18 11:55:0835.834N117.657W6.1 24 km (15 mi) N of Ridgecrest, CA
map1.02021/07/18 11:55:0032.928N116.212W12.4 25 km (16 mi) SSW of Ocotillo Wells, CA
map0.62021/07/18 11:34:2233.508N116.556W6.35 12 km ( 7 mi) ESE of Anza, CA
map0.92021/07/18 11:34:0632.935N116.225W9.4 25 km (15 mi) SSW of Ocotillo Wells, CA
map0.92021/07/18 11:27:4134.029N116.612W11.36 3 km ( 2 mi) SW of Morongo Valley, CA
map1.02021/07/18 11:27:2635.960N120.512W9.86 10 km ( 6 mi) NW of Parkfield, CA
map0.82021/07/18 11:27:1738.555N119.550W6.9 31 km (19 mi) SW of Smith Valley, NV
map1.32021/07/18 11:27:0938.826N122.799W2.66 6 km ( 4 mi) NW of The Geysers, CA
map1.52021/07/18 11:23:1435.976N117.680W1.71 21 km (13 mi) ENE of Little Lake, CA
map0.82021/07/18 11:12:3835.554N118.524W3.46 5 km ( 3 mi) SW of Bodfish, CA
map0.02021/07/18 11:09:5633.330N116.265W11.56 13 km ( 8 mi) NE of Borrego Springs, CA
map1.32021/07/18 11:07:1638.798N122.732W1.21 3 km ( 2 mi) SSW of Cobb, CA
map0.62021/07/18 10:59:0433.969N116.967W14.98 5 km ( 3 mi) NNE of Beaumont, CA
map1.32021/07/18 10:52:1638.538N119.433W0.3 28 km (18 mi) SSW of Smith Valley, NV
map0.82021/07/18 10:51:0338.559N119.450W1.5 27 km (17 mi) SSW of Smith Valley, NV
map1.92021/07/18 10:48:1034.148N116.878W7.2 11 km ( 7 mi) SSE of Big Bear Lake, CA
map1.02021/07/18 10:45:4238.523N119.428W1.59 30 km (19 mi) SSW of Smith Valley, NV
map1.12021/07/18 10:43:5638.493N119.507W9.0 35 km (22 mi) SSW of Smith Valley, NV
map0.72021/07/18 10:38:5238.487N119.529W4.3 37 km (23 mi) SSW of Smith Valley, NV
map0.92021/07/18 10:36:5538.546N119.453W1.1 28 km (17 mi) SSW of Smith Valley, NV
map1.12021/07/18 10:35:1838.537N119.462W1.8 29 km (18 mi) SSW of Smith Valley, NV
map0.22021/07/18 10:27:2738.520N119.523W6.8 33 km (21 mi) SSW of Smith Valley, NV
map0.42021/07/18 10:26:1535.930N117.715W2.51 17 km (11 mi) E of Little Lake, CA
map0.72021/07/18 10:06:0332.647N115.919W10.86 12 km ( 7 mi) SE of Ocotillo, CA
map1.02021/07/18 10:02:2638.532N119.536W5.8 33 km (20 mi) SSW of Smith Valley, NV
map1.82021/07/18 09:58:1233.752N117.529W7.6 11 km ( 7 mi) NNE of Trabuco Canyon, CA
map0.82021/07/18 09:55:0038.831N122.803W1.9 7 km ( 4 mi) W of Cobb, CA
map1.32021/07/18 09:53:2538.561N119.451W0.0 27 km (16 mi) SSW of Smith Valley, NV
map0.52021/07/18 09:44:3933.887N117.037W16.87 7 km ( 5 mi) SW of Beaumont, CA
map0.92021/07/18 09:43:3138.548N119.464W0.3 28 km (18 mi) SSW of Smith Valley, NV
map2.12021/07/18 09:40:5538.295N119.447W0.0 55 km (34 mi) S of Smith Valley, NV
map0.92021/07/18 09:36:0538.568N119.620W6.4 34 km (21 mi) SW of Smith Valley, NV
map0.72021/07/18 09:32:1035.651N117.530W9.19 14 km ( 8 mi) ENE of Ridgecrest, CA
map1.12021/07/18 09:27:4838.507N119.537W4.0 35 km (22 mi) SSW of Smith Valley, NV
map1.12021/07/18 09:12:2238.515N119.541W5.5 34 km (21 mi) SSW of Smith Valley, NV
map0.92021/07/18 09:06:1438.153N118.172W2.9 57 km (35 mi) SE of Hawthorne, NV
map0.72021/07/18 09:05:5138.460N119.429W0.39 37 km (23 mi) SSW of Smith Valley, NV
map0.82021/07/18 09:05:0538.460N119.432W1.66 37 km (23 mi) SSW of Smith Valley, NV
map1.02021/07/18 08:59:3035.672N117.469W7.76 12 km ( 8 mi) SSW of Searles Valley, CA
map0.72021/07/18 08:47:5238.456N119.459W2.4 38 km (23 mi) SSW of Smith Valley, NV
map0.32021/07/18 08:32:4733.605N116.808W6.03 14 km ( 8 mi) WNW of Anza, CA
map1.72021/07/18 08:15:2632.552N115.607W10.46 4 km ( 2 mi) SW of Progreso, B.C., MX
map1.22021/07/18 08:10:1038.537N119.519W6.6 31 km (19 mi) SSW of Smith Valley, NV
map1.42021/07/18 07:57:5037.293N121.673W1.28 15 km ( 9 mi) E of Seven Trees, CA
map1.82021/07/18 07:36:4838.647N118.470W5.1 19 km (12 mi) NE of Hawthorne, NV
map1.92021/07/18 07:25:5739.215N119.744W4.0 6 km ( 4 mi) NNE of Carson City, NV
map0.82021/07/18 07:22:3438.533N119.437W9.3 29 km (18 mi) SSW of Smith Valley, NV
map1.82021/07/18 07:14:5338.428N119.468W4.79 41 km (26 mi) SSW of Smith Valley, NV
map1.22021/07/18 07:09:5738.548N119.567W3.5 33 km (20 mi) SW of Smith Valley, NV
map1.42021/07/18 07:01:3638.427N119.489W2.9 42 km (26 mi) SSW of Smith Valley, NV
map1.22021/07/18 06:39:2437.505N121.685W4.03 18 km (11 mi) NE of East Foothills, CA
map1.42021/07/18 06:33:3838.542N119.462W0.0 29 km (18 mi) SSW of Smith Valley, NV
map0.92021/07/18 06:27:5438.833N122.784W1.75 5 km ( 3 mi) WNW of Cobb, CA
MAP3.62021/07/18 06:24:1038.424N119.470W5.44 42 km (26 mi) SSW of Smith Valley, NV
map1.42021/07/18 05:37:3036.623N121.226W5.66 23 km (15 mi) NE of Gonzales, CA
map0.62021/07/18 05:32:3838.488N119.506W6.6 36 km (22 mi) SSW of Smith Valley, NV
map0.42021/07/18 05:18:4938.832N122.809W2.31 8 km ( 5 mi) W of Cobb, CA
map0.92021/07/18 05:15:1838.832N122.809W2.38 8 km ( 5 mi) W of Cobb, CA
map1.02021/07/18 05:09:5938.539N119.525W10.9 31 km (20 mi) SSW of Smith Valley, NV
map1.92021/07/18 04:48:3335.683N117.406W5.47 9 km ( 6 mi) SSW of Trona, CA
map0.62021/07/18 04:33:3633.665N116.736W13.07 9 km ( 5 mi) S of Idyllwild, CA
map2.32021/07/18 04:27:3538.522N119.522W4.03 33 km (21 mi) SSW of Smith Valley, NV
map0.62021/07/18 04:27:0338.554N119.504W8.0 29 km (18 mi) SSW of Smith Valley, NV
map0.42021/07/18 04:22:1435.612N117.456W3.92 18 km (11 mi) SSW of Searles Valley, CA
map0.82021/07/18 04:10:1338.825N122.795W2.86 6 km ( 4 mi) W of Cobb, CA
map1.12021/07/18 03:37:4838.546N119.395W5.1 27 km (17 mi) S of Smith Valley, NV
map1.02021/07/18 03:36:0838.535N119.465W2.0 30 km (18 mi) SSW of Smith Valley, NV
map0.72021/07/18 03:32:2138.543N119.390W1.8 27 km (17 mi) S of Smith Valley, NV
map1.22021/07/18 03:30:0138.548N119.509W10.9 30 km (19 mi) SSW of Smith Valley, NV
map0.42021/07/18 03:25:5033.658N116.741W12.98 9 km ( 6 mi) SSW of Idyllwild, CA
map1.12021/07/18 03:15:5738.759N122.730W1.36 3 km ( 2 mi) SE of The Geysers, CA
map0.82021/07/18 03:13:1738.824N122.799W1.57 6 km ( 4 mi) NW of The Geysers, CA
map0.72021/07/18 02:59:0538.813N122.738W1.01 2 km ( 1 mi) SW of Cobb, CA
map0.72021/07/18 02:57:5638.812N122.737W0.42 2 km ( 1 mi) SW of Cobb, CA
map1.12021/07/18 02:57:3238.812N122.738W0.89 2 km ( 1 mi) SW of Cobb, CA
map1.12021/07/18 02:52:2536.706N115.646W1.4 64 km (40 mi) NNE of Pahrump, NV
map1.42021/07/18 02:51:2837.380N118.452W10.77 2 km ( 1 mi) N of West Bishop, CA
map1.12021/07/18 02:47:3338.545N119.454W1.8 28 km (18 mi) SSW of Smith Valley, NV
map0.92021/07/18 02:45:0638.469N119.537W9.7 39 km (24 mi) SSW of Smith Valley, NV
map0.62021/07/18 02:20:0435.802N117.640W0.58 20 km (13 mi) N of Ridgecrest, CA
map1.62021/07/18 02:09:3237.293N121.670W1.59 15 km ( 9 mi) E of Seven Trees, CA
map1.12021/07/18 02:08:2238.478N119.466W4.6 36 km (22 mi) SSW of Smith Valley, NV
map2.02021/07/18 01:56:5538.544N119.523W2.96 31 km (19 mi) SSW of Smith Valley, NV
map1.62021/07/18 01:55:3732.900N115.950W7.27 19 km (12 mi) NNE of Ocotillo, CA
map1.02021/07/18 01:46:1738.566N119.442W0.9 26 km (16 mi) SSW of Smith Valley, NV
map1.12021/07/18 01:39:0938.529N119.432W0.9 29 km (18 mi) SSW of Smith Valley, NV
map0.62021/07/18 01:29:1537.507N118.668W6.61 25 km (15 mi) NW of West Bishop, CA
map0.72021/07/18 01:20:2333.685N116.737W15.8 6 km ( 4 mi) SSW of Idyllwild, CA
map1.12021/07/18 01:12:3038.507N119.516W3.9 34 km (21 mi) SSW of Smith Valley, NV
map1.22021/07/18 01:10:1538.538N119.437W0.1 29 km (18 mi) SSW of Smith Valley, NV
map0.22021/07/18 00:58:0233.427N116.610W7.9 15 km (10 mi) SSE of Anza, CA
map1.32021/07/18 00:50:1438.399N118.390W1.7 25 km (15 mi) SE of Hawthorne, NV
map2.22021/07/18 00:38:4040.301N124.327W31.22 29 km (18 mi) SW of Rio Dell, CA
map1.22021/07/18 00:34:0138.558N119.461W0.0 27 km (17 mi) SSW of Smith Valley, NV
map2.02021/07/18 00:27:3736.451N117.949W8.1 19 km (12 mi) SE of Lone Pine, CA
map1.22021/07/18 00:17:1938.537N119.458W3.1 29 km (18 mi) SSW of Smith Valley, NV
map0.82021/07/18 00:15:3634.097N116.671W8.25 10 km ( 6 mi) NW of Morongo Valley, CA
map1.22021/07/18 00:09:2135.803N117.616W6.3 20 km (12 mi) WNW of Searles Valley, CA
map0.72021/07/18 00:06:5938.502N119.481W9.0 34 km (21 mi) SSW of Smith Valley, NV
map2.42021/07/18 00:05:4640.327N124.390W29.25 30 km (18 mi) SSW of Ferndale, CA
map0.62021/07/18 00:05:0538.519N119.470W3.8 31 km (20 mi) SSW of Smith Valley, NV
map1.02021/07/18 00:04:0038.463N119.534W4.8 39 km (24 mi) SSW of Smith Valley, NV
map0.72021/07/17 23:59:3238.541N119.456W1.7 29 km (18 mi) SSW of Smith Valley, NV
MAP5.12021/07/17 23:46:1240.324N124.425W30.91 31 km (19 mi) SSW of Ferndale, CA
map0.72021/07/17 23:37:4738.473N119.533W7.4 38 km (24 mi) SSW of Smith Valley, NV
map0.82021/07/17 23:33:2436.107N117.853W3.97 11 km ( 7 mi) NE of Coso Junction, CA
map1.12021/07/17 23:24:1237.279N115.678W0.0 46 km (29 mi) WSW of Alamo, NV
map1.02021/07/17 23:05:1038.559N119.460W1.5 27 km (17 mi) SSW of Smith Valley, NV
map0.92021/07/17 23:03:3838.538N119.465W4.1 29 km (18 mi) SSW of Smith Valley, NV
map0.32021/07/17 23:02:4933.932N117.163W15.31 6 km ( 4 mi) E of Moreno Valley, CA
map0.82021/07/17 23:00:3032.787N115.840W8.22 15 km (10 mi) ENE of Ocotillo, CA
map1.02021/07/17 22:59:5038.768N122.735W1.45 2 km ( 1 mi) ESE of The Geysers, CA
map1.22021/07/17 22:37:5938.558N119.462W4.9 27 km (17 mi) SSW of Smith Valley, NV
map0.52021/07/17 22:36:4835.795N117.620W10.45 20 km (12 mi) W of Searles Valley, CA
map1.12021/07/17 22:32:1638.491N119.442W4.6 34 km (21 mi) SSW of Smith Valley, NV
map1.32021/07/17 22:25:0633.399N116.962W5.62 10 km ( 6 mi) WSW of Aguanga, CA
map2.22021/07/17 22:24:1138.488N119.499W12.07 36 km (22 mi) SSW of Smith Valley, NV
map0.32021/07/17 22:04:0233.239N116.652W11.75 5 km ( 3 mi) SSW of Warner Springs, CA
map1.62021/07/17 22:01:4538.555N119.519W6.72 30 km (18 mi) SSW of Smith Valley, NV
map1.22021/07/17 21:59:5537.774N117.685W14.7 52 km (32 mi) SW of Tonopah, NV
map1.22021/07/17 21:55:2038.550N119.496W11.3 29 km (18 mi) SSW of Smith Valley, NV
map1.22021/07/17 21:54:2938.555N119.472W1.1 28 km (17 mi) SSW of Smith Valley, NV
map0.72021/07/17 21:52:2938.425N119.550W1.9 44 km (27 mi) SSW of Smith Valley, NV
map1.32021/07/17 21:51:2138.557N119.460W5.6 27 km (17 mi) SSW of Smith Valley, NV
map1.12021/07/17 21:50:0638.574N119.449W0.0 25 km (16 mi) SSW of Smith Valley, NV
map1.32021/07/17 21:35:4938.560N119.463W1.3 27 km (17 mi) SSW of Smith Valley, NV
map1.12021/07/17 21:30:3032.727N117.367W16.43 16 km (10 mi) SSW of La Jolla, CA
map2.12021/07/17 21:22:4838.529N119.512W0.0 32 km (20 mi) SSW of Smith Valley, NV
map1.42021/07/17 21:19:1638.490N119.544W0.1 37 km (23 mi) SSW of Smith Valley, NV
map1.52021/07/17 20:56:3232.747N115.820W7.36 16 km (10 mi) E of Ocotillo, CA
map1.02021/07/17 20:35:5738.476N119.524W6.6 38 km (23 mi) SSW of Smith Valley, NV
map2.32021/07/17 20:34:2439.419N123.283W5.49 6 km ( 4 mi) E of Willits, CA
map0.52021/07/17 20:33:3138.838N122.784W1.34 6 km ( 3 mi) WNW of Cobb, CA
map1.22021/07/17 20:26:2232.782N115.843W7.55 15 km ( 9 mi) ENE of Ocotillo, CA
map0.92021/07/17 20:10:1138.772N122.715W2.12 4 km ( 2 mi) E of The Geysers, CA
map1.12021/07/17 19:45:0838.159N117.978W4.8 66 km (41 mi) W of Tonopah, NV
map0.92021/07/17 19:31:0038.531N119.442W1.9 29 km (18 mi) SSW of Smith Valley, NV
map0.92021/07/17 19:22:2838.461N119.477W7.3 38 km (23 mi) SSW of Smith Valley, NV
map2.22021/07/17 19:17:2338.530N119.444W0.54 30 km (18 mi) SSW of Smith Valley, NV
map0.92021/07/17 19:13:4138.797N122.799W0.61 4 km ( 3 mi) WNW of The Geysers, CA
map0.62021/07/17 19:12:1138.797N122.799W0.52 4 km ( 3 mi) WNW of The Geysers, CA
map1.32021/07/17 19:12:0338.555N119.526W6.1 30 km (19 mi) SSW of Smith Valley, NV
map0.62021/07/17 18:52:2338.792N122.780W1.53 3 km ( 2 mi) NW of The Geysers, CA
map0.72021/07/17 18:43:5338.560N119.577W2.87 32 km (20 mi) SW of Smith Valley, NV
map2.02021/07/17 18:40:3535.675N117.519W2.79 15 km ( 9 mi) SW of Searles Valley, CA
map1.22021/07/17 18:25:4238.543N119.454W1.0 28 km (18 mi) SSW of Smith Valley, NV
map0.92021/07/17 18:16:0138.825N122.803W2.79 7 km ( 4 mi) NW of The Geysers, CA
map0.52021/07/17 18:10:0533.413N116.995W7.85 9 km ( 6 mi) NE of Pala, CA
map1.52021/07/17 18:06:2738.541N119.526W4.42 31 km (19 mi) SSW of Smith Valley, NV
map0.52021/07/17 18:06:1138.519N119.528W4.63 34 km (21 mi) SSW of Smith Valley, NV
map1.02021/07/17 18:05:2438.499N119.600W7.7 39 km (24 mi) SW of Smith Valley, NV
map1.02021/07/17 17:44:2738.470N119.527W7.2 38 km (24 mi) SSW of Smith Valley, NV
map1.32021/07/17 17:33:5734.185N117.375W11.5 4 km ( 3 mi) NW of Muscoy, CA
map2.62021/07/17 17:08:2836.642N121.258W5.31 21 km (13 mi) SSE of Ridgemark, CA
map0.52021/07/17 16:58:0735.812N117.647W9.67 21 km (13 mi) N of Ridgecrest, CA
map0.72021/07/17 16:44:2333.603N116.809W6.04 14 km ( 8 mi) WNW of Anza, CA
map0.32021/07/17 16:43:0033.525N116.728W11.28 6 km ( 4 mi) WSW of Anza, CA
map0.82021/07/17 16:25:1738.556N119.537W6.8 30 km (19 mi) SSW of Smith Valley, NV
map1.22021/07/17 16:17:1938.534N119.530W3.5 32 km (20 mi) SSW of Smith Valley, NV
map1.42021/07/17 16:16:0638.516N119.534W4.3 34 km (21 mi) SSW of Smith Valley, NV
map0.72021/07/17 16:00:2138.526N119.510W8.83 32 km (20 mi) SSW of Smith Valley, NV
map1.22021/07/17 15:55:2338.497N119.504W5.3 35 km (22 mi) SSW of Smith Valley, NV
map1.02021/07/17 15:46:0838.619N119.578W6.1 27 km (17 mi) SW of Smith Valley, NV
map0.62021/07/17 15:43:1338.542N119.469W2.24 29 km (18 mi) SSW of Smith Valley, NV
map0.52021/07/17 15:42:5138.547N119.472W3.16 29 km (18 mi) SSW of Smith Valley, NV
map-0.12021/07/17 15:28:4135.618N117.497W10.06 16 km (10 mi) E of Ridgecrest, CA
map2.92021/07/17 15:22:2738.530N119.536W2.34 33 km (20 mi) SSW of Smith Valley, NV
map1.52021/07/17 15:20:4538.499N119.539W4.0 36 km (22 mi) SSW of Smith Valley, NV
map1.52021/07/17 15:19:0338.549N119.439W2.0 27 km (17 mi) SSW of Smith Valley, NV
map0.72021/07/17 15:15:3738.150N117.989W6.7 67 km (42 mi) W of Tonopah, NV
map1.92021/07/17 15:12:3336.444N121.173W11.76 14 km ( 9 mi) E of Soledad, CA
map1.62021/07/17 15:07:3338.190N119.666W7.0 51 km (31 mi) N of Yosemite Valley, CA
map1.12021/07/17 14:59:5738.481N119.518W9.1 37 km (23 mi) SSW of Smith Valley, NV
map1.02021/07/17 14:56:4132.982N116.441W12.08 18 km (11 mi) SE of Julian, CA
map0.22021/07/17 14:32:1338.811N122.742W2.3 2 km ( 1 mi) SW of Cobb, CA
map1.52021/07/17 14:29:4738.553N119.456W5.1 27 km (17 mi) SSW of Smith Valley, NV
map0.72021/07/17 14:02:4338.516N119.490W4.71 32 km (20 mi) SSW of Smith Valley, NV
map2.82021/07/17 13:59:3237.050N117.510W16.0 59 km (37 mi) NNW of Stovepipe Wells, CA
map1.62021/07/17 13:55:1338.523N119.485W5.2 31 km (20 mi) SSW of Smith Valley, NV
map1.32021/07/17 13:54:3238.516N119.510W7.5 33 km (21 mi) SSW of Smith Valley, NV
map1.32021/07/17 13:53:0038.538N119.536W3.8 32 km (20 mi) SSW of Smith Valley, NV
map1.02021/07/17 13:49:4238.468N119.475W8.8 37 km (23 mi) SSW of Smith Valley, NV
map1.72021/07/17 13:34:3433.883N117.721W5.71 9 km ( 5 mi) E of Yorba Linda, CA
map1.12021/07/17 13:31:3834.002N116.996W18.01 6 km ( 3 mi) ENE of Calimesa, CA
map0.82021/07/17 13:31:1838.748N122.430W7.85 13 km ( 8 mi) ESE of Hidden Valley Lake, CA
map1.22021/07/17 13:24:2538.528N119.536W3.4 33 km (21 mi) SSW of Smith Valley, NV
map0.92021/07/17 13:24:0433.987N117.023W12.71 3 km ( 2 mi) E of Calimesa, CA
map1.12021/07/17 13:14:2634.128N117.499W3.36 5 km ( 3 mi) NW of Fontana, CA
map1.42021/07/17 13:13:4638.541N119.474W8.0 29 km (18 mi) SSW of Smith Valley, NV
map0.92021/07/17 13:11:2738.533N119.531W4.3 32 km (20 mi) SSW of Smith Valley, NV
map2.32021/07/17 13:07:5832.388N115.197W15.72 4 km ( 2 mi) N of Delta, B.C., MX
map0.82021/07/17 13:05:5237.617N118.819W2.86 14 km ( 9 mi) E of Mammoth Lakes, CA
map2.02021/07/17 12:42:4938.453N119.491W2.44 39 km (24 mi) SSW of Smith Valley, NV
map2.12021/07/17 12:40:2238.526N119.545W1.09 34 km (21 mi) SSW of Smith Valley, NV
map2.72021/07/17 12:29:4739.438N118.325W15.9 39 km (24 mi) E of Fallon, NV
map1.02021/07/17 12:27:0538.513N119.484W7.2 33 km (20 mi) SSW of Smith Valley, NV
map1.12021/07/17 12:22:2533.060N116.393W12.98 20 km (12 mi) E of Julian, CA
map1.02021/07/17 12:21:4835.775N117.567W9.91 15 km ( 9 mi) W of Searles Valley, CA
map1.72021/07/17 12:20:2238.160N117.882W7.1 58 km (36 mi) W of Tonopah, NV
map1.12021/07/17 12:19:4738.478N119.522W5.7 37 km (23 mi) SSW of Smith Valley, NV
map1.12021/07/17 12:08:4738.835N122.803W2.18 7 km ( 4 mi) WNW of Cobb, CA
map1.92021/07/17 12:02:3538.507N119.550W3.06 36 km (22 mi) SSW of Smith Valley, NV
map0.92021/07/17 11:51:1137.614N119.025W7.75 5 km ( 3 mi) WSW of Mammoth Lakes, CA
map1.52021/07/17 11:45:1638.563N119.490W4.94 28 km (17 mi) SSW of Smith Valley, NV
map1.12021/07/17 11:44:1235.355N117.833W7.12 18 km (11 mi) W of Johannesburg, CA
map1.02021/07/17 11:38:1938.547N119.535W9.6 31 km (19 mi) SSW of Smith Valley, NV
map1.22021/07/17 11:17:2738.561N119.534W6.2 30 km (19 mi) SW of Smith Valley, NV
map0.02021/07/17 11:17:0435.600N117.504W6.55 16 km (10 mi) E of Ridgecrest, CA
map2.22021/07/17 11:13:4538.533N119.531W1.89 32 km (20 mi) SSW of Smith Valley, NV
map1.42021/07/17 11:10:0538.544N119.536W0.0 31 km (20 mi) SSW of Smith Valley, NV
map0.52021/07/17 11:09:5738.823N122.762W-0.08 3 km ( 2 mi) W of Cobb, CA
map0.52021/07/17 11:09:0035.775N117.586W7.03 16 km (10 mi) W of Searles Valley, CA
map2.72021/07/17 11:07:5332.365N118.713W7.86 61 km (38 mi) SW of San Clemente Is. (SE tip), CA
map0.42021/07/17 11:06:1938.519N119.466W3.25 31 km (19 mi) SSW of Smith Valley, NV
map0.42021/07/17 11:05:3738.546N119.463W0.95 28 km (18 mi) SSW of Smith Valley, NV
map1.22021/07/17 11:03:5838.479N119.531W4.0 38 km (23 mi) SSW of Smith Valley, NV
map1.82021/07/17 10:58:3938.554N119.457W1.17 27 km (17 mi) SSW of Smith Valley, NV
map0.82021/07/17 10:58:2132.745N115.816W9.75 17 km (10 mi) E of Ocotillo, CA
map1.32021/07/17 10:54:1138.137N117.893W5.7 58 km (36 mi) W of Tonopah, NV
map0.92021/07/17 10:50:2738.427N119.546W2.1 43 km (27 mi) SSW of Smith Valley, NV
map1.12021/07/17 10:49:1038.519N119.526W9.3 33 km (21 mi) SSW of Smith Valley, NV
map0.72021/07/17 10:44:0133.668N116.757W15.52 9 km ( 5 mi) SSW of Idyllwild, CA
map1.22021/07/17 10:43:3238.558N119.458W3.5 27 km (17 mi) SSW of Smith Valley, NV
map0.22021/07/17 10:33:4437.614N118.828W1.4 14 km ( 8 mi) E of Mammoth Lakes, CA
map1.12021/07/17 10:31:2238.561N119.452W0.0 27 km (17 mi) SSW of Smith Valley, NV
map2.62021/07/17 10:12:5438.553N119.458W-0.52 28 km (17 mi) SSW of Smith Valley, NV
map2.12021/07/17 10:10:5738.555N119.456W1.09 27 km (17 mi) SSW of Smith Valley, NV
map0.92021/07/17 10:09:3438.423N119.566W0.0 45 km (28 mi) SSW of Smith Valley, NV
map1.82021/07/17 10:00:4438.405N119.569W2.23 46 km (29 mi) SSW of Smith Valley, NV
map1.12021/07/17 09:30:1238.538N119.562W8.5 33 km (21 mi) SW of Smith Valley, NV
map0.92021/07/17 09:14:2838.534N119.495W6.5 31 km (19 mi) SSW of Smith Valley, NV
map1.42021/07/17 09:09:2137.168N117.909W3.6 34 km (21 mi) E of Big Pine, CA
map0.82021/07/17 09:00:1038.511N119.528W1.97 34 km (21 mi) SSW of Smith Valley, NV
map0.72021/07/17 08:57:0838.485N119.489W7.13 36 km (22 mi) SSW of Smith Valley, NV
map0.82021/07/17 08:50:3434.261N117.026W6.3 10 km ( 6 mi) NE of Running Springs, CA
map0.92021/07/17 08:40:0538.830N122.815W1.57 8 km ( 5 mi) NW of The Geysers, CA
map1.22021/07/17 08:39:2235.676N118.135W8.46 28 km (17 mi) ESE of Kernville, CA
map1.22021/07/17 08:35:3738.515N119.501W12.3 33 km (20 mi) SSW of Smith Valley, NV
map0.82021/07/17 08:27:1938.980N122.526W-0.63 9 km ( 6 mi) ENE of Clearlake, CA
map1.02021/07/17 08:21:2638.537N119.437W1.5 29 km (18 mi) SSW of Smith Valley, NV
map0.12021/07/17 08:14:0235.681N117.445W5.26 10 km ( 6 mi) SSW of Searles Valley, CA